<?xml version="1.0" encoding="UTF-8" standalone="no" ?>
<gpx xmlns="http://www.topografix.com/GPX/1/1" xmlns:xsi="http://www.w3.org/2001/XMLSchema-instance" xsi:schemaLocation="http://www.topografix.com/GPX/1/1 http://www.topografix.com/GPX/1/1/gpx.xsd" version="1.1" creator="VisuGPX - https://www.visugpx.com">
  <metadata>
    <name>Reconaissance parcours 27 Tritons 2012</name>
    <desc><![CDATA[Reco du 3/6/2012 Parcours 27km au départ de Chirens]]></desc>
  </metadata>
  <trk>
    <name><![CDATA[Reconaissance parcours 27 Tritons 2012_1]]></name>
    <trkseg>
      <trkpt lat="45.41493" lon="5.55548">
        <ele>458.5</ele>
        <time>2012-06-02T09:01:56.240Z</time>
      </trkpt>
      <trkpt lat="45.41494" lon="5.55563">
        <ele>492.5</ele>
        <time>2012-06-02T09:02:15.310Z</time>
      </trkpt>
      <trkpt lat="45.41491" lon="5.55566">
        <ele>500.5</ele>
        <time>2012-06-02T09:02:18.310Z</time>
      </trkpt>
      <trkpt lat="45.41488" lon="5.5555">
        <ele>513</ele>
        <time>2012-06-02T09:02:30.310Z</time>
      </trkpt>
      <trkpt lat="45.41476" lon="5.55538">
        <ele>514</ele>
        <time>2012-06-02T09:02:40.420Z</time>
      </trkpt>
      <trkpt lat="45.41449" lon="5.55541">
        <ele>517</ele>
        <time>2012-06-02T09:02:50.530Z</time>
      </trkpt>
      <trkpt lat="45.41366" lon="5.55535">
        <ele>518.5</ele>
        <time>2012-06-02T09:03:16.560Z</time>
      </trkpt>
      <trkpt lat="45.41349" lon="5.5554">
        <ele>519.5</ele>
        <time>2012-06-02T09:03:21.560Z</time>
      </trkpt>
      <trkpt lat="45.41289" lon="5.55578">
        <ele>524.5</ele>
        <time>2012-06-02T09:03:42.560Z</time>
      </trkpt>
      <trkpt lat="45.41272" lon="5.55582">
        <ele>527</ele>
        <time>2012-06-02T09:03:48.560Z</time>
      </trkpt>
      <trkpt lat="45.41248" lon="5.55576">
        <ele>527</ele>
        <time>2012-06-02T09:03:56.560Z</time>
      </trkpt>
      <trkpt lat="45.4122" lon="5.55544">
        <ele>527</ele>
        <time>2012-06-02T09:04:06.560Z</time>
      </trkpt>
      <trkpt lat="45.41209" lon="5.55524">
        <ele>526</ele>
        <time>2012-06-02T09:04:11.560Z</time>
      </trkpt>
      <trkpt lat="45.41199" lon="5.55489">
        <ele>526.5</ele>
        <time>2012-06-02T09:04:20.560Z</time>
      </trkpt>
      <trkpt lat="45.41177" lon="5.5545">
        <ele>528</ele>
        <time>2012-06-02T09:04:29.560Z</time>
      </trkpt>
      <trkpt lat="45.4111" lon="5.55372">
        <ele>529</ele>
        <time>2012-06-02T09:04:50.140Z</time>
      </trkpt>
      <trkpt lat="45.41063" lon="5.55323">
        <ele>530</ele>
        <time>2012-06-02T09:05:04.130Z</time>
      </trkpt>
      <trkpt lat="45.40994" lon="5.55241">
        <ele>528</ele>
        <time>2012-06-02T09:05:23.130Z</time>
      </trkpt>
      <trkpt lat="45.40992" lon="5.55234">
        <ele>529</ele>
        <time>2012-06-02T09:05:24.130Z</time>
      </trkpt>
      <trkpt lat="45.40981" lon="5.55219">
        <ele>526.5</ele>
        <time>2012-06-02T09:05:27.140Z</time>
      </trkpt>
      <trkpt lat="45.40942" lon="5.55132">
        <ele>523</ele>
        <time>2012-06-02T09:05:39.130Z</time>
      </trkpt>
      <trkpt lat="45.40897" lon="5.55057">
        <ele>521</ele>
        <time>2012-06-02T09:05:53.140Z</time>
      </trkpt>
      <trkpt lat="45.40863" lon="5.5498">
        <ele>523</ele>
        <time>2012-06-02T09:06:14.140Z</time>
      </trkpt>
      <trkpt lat="45.40827" lon="5.54873">
        <ele>526.5</ele>
        <time>2012-06-02T09:06:48.130Z</time>
      </trkpt>
      <trkpt lat="45.40749" lon="5.54711">
        <ele>534.5</ele>
        <time>2012-06-02T09:07:46.120Z</time>
      </trkpt>
      <trkpt lat="45.40729" lon="5.54679">
        <ele>537.5</ele>
        <time>2012-06-02T09:07:59.120Z</time>
      </trkpt>
      <trkpt lat="45.40714" lon="5.54669">
        <ele>538.5</ele>
        <time>2012-06-02T09:08:06.120Z</time>
      </trkpt>
      <trkpt lat="45.40594" lon="5.54642">
        <ele>538</ele>
        <time>2012-06-02T09:08:42.120Z</time>
      </trkpt>
      <trkpt lat="45.4052" lon="5.54612">
        <ele>537</ele>
        <time>2012-06-02T09:09:03.120Z</time>
      </trkpt>
      <trkpt lat="45.40519" lon="5.54601">
        <ele>537.5</ele>
        <time>2012-06-02T09:09:06.120Z</time>
      </trkpt>
      <trkpt lat="45.40556" lon="5.54564">
        <ele>538.5</ele>
        <time>2012-06-02T09:09:20.120Z</time>
      </trkpt>
      <trkpt lat="45.40576" lon="5.54536">
        <ele>539.5</ele>
        <time>2012-06-02T09:09:28.110Z</time>
      </trkpt>
      <trkpt lat="45.40605" lon="5.54504">
        <ele>540.5</ele>
        <time>2012-06-02T09:09:39.110Z</time>
      </trkpt>
      <trkpt lat="45.40648" lon="5.54477">
        <ele>542</ele>
        <time>2012-06-02T09:09:53.110Z</time>
      </trkpt>
      <trkpt lat="45.40795" lon="5.54406">
        <ele>546</ele>
        <time>2012-06-02T09:10:41.100Z</time>
      </trkpt>
      <trkpt lat="45.40877" lon="5.54372">
        <ele>550.5</ele>
        <time>2012-06-02T09:11:09.100Z</time>
      </trkpt>
      <trkpt lat="45.40891" lon="5.54362">
        <ele>553</ele>
        <time>2012-06-02T09:11:16.100Z</time>
      </trkpt>
      <trkpt lat="45.40963" lon="5.54288">
        <ele>561.5</ele>
        <time>2012-06-02T09:12:04.990Z</time>
      </trkpt>
      <trkpt lat="45.41011" lon="5.54246">
        <ele>568</ele>
        <time>2012-06-02T09:12:32.990Z</time>
      </trkpt>
      <trkpt lat="45.41054" lon="5.54195">
        <ele>572.5</ele>
        <time>2012-06-02T09:13:02.890Z</time>
      </trkpt>
      <trkpt lat="45.41111" lon="5.54156">
        <ele>579</ele>
        <time>2012-06-02T09:13:38.890Z</time>
      </trkpt>
      <trkpt lat="45.4117" lon="5.5417">
        <ele>584</ele>
        <time>2012-06-02T09:14:05.890Z</time>
      </trkpt>
      <trkpt lat="45.41206" lon="5.54166">
        <ele>582.5</ele>
        <time>2012-06-02T09:14:16.890Z</time>
      </trkpt>
      <trkpt lat="45.41312" lon="5.54134">
        <ele>591.5</ele>
        <time>2012-06-02T09:14:51.790Z</time>
      </trkpt>
      <trkpt lat="45.41315" lon="5.5413">
        <ele>592</ele>
        <time>2012-06-02T09:14:53.790Z</time>
      </trkpt>
      <trkpt lat="45.41318" lon="5.54113">
        <ele>592.5</ele>
        <time>2012-06-02T09:14:58.890Z</time>
      </trkpt>
      <trkpt lat="45.41312" lon="5.54078">
        <ele>591</ele>
        <time>2012-06-02T09:15:06.790Z</time>
      </trkpt>
      <trkpt lat="45.41304" lon="5.54056">
        <ele>591.5</ele>
        <time>2012-06-02T09:15:11.890Z</time>
      </trkpt>
      <trkpt lat="45.41267" lon="5.53998">
        <ele>590</ele>
        <time>2012-06-02T09:15:27.790Z</time>
      </trkpt>
      <trkpt lat="45.41264" lon="5.53988">
        <ele>590.5</ele>
        <time>2012-06-02T09:15:30.790Z</time>
      </trkpt>
      <trkpt lat="45.41264" lon="5.53954">
        <ele>592</ele>
        <time>2012-06-02T09:15:40.890Z</time>
      </trkpt>
      <trkpt lat="45.41272" lon="5.53914">
        <ele>591.5</ele>
        <time>2012-06-02T09:15:51.790Z</time>
      </trkpt>
      <trkpt lat="45.41267" lon="5.53847">
        <ele>587.5</ele>
        <time>2012-06-02T09:16:02.790Z</time>
      </trkpt>
      <trkpt lat="45.41258" lon="5.53817">
        <ele>586</ele>
        <time>2012-06-02T09:16:06.690Z</time>
      </trkpt>
      <trkpt lat="45.4123" lon="5.53763">
        <ele>583</ele>
        <time>2012-06-02T09:16:14.790Z</time>
      </trkpt>
      <trkpt lat="45.41196" lon="5.53684">
        <ele>578.5</ele>
        <time>2012-06-02T09:16:25.690Z</time>
      </trkpt>
      <trkpt lat="45.41195" lon="5.53654">
        <ele>577</ele>
        <time>2012-06-02T09:16:29.690Z</time>
      </trkpt>
      <trkpt lat="45.41203" lon="5.53611">
        <ele>576</ele>
        <time>2012-06-02T09:16:34.190Z</time>
      </trkpt>
      <trkpt lat="45.4121" lon="5.53546">
        <ele>574</ele>
        <time>2012-06-02T09:16:42.440Z</time>
      </trkpt>
      <trkpt lat="45.4121" lon="5.53512">
        <ele>573.5</ele>
        <time>2012-06-02T09:16:46.520Z</time>
      </trkpt>
      <trkpt lat="45.41214" lon="5.53474">
        <ele>572.5</ele>
        <time>2012-06-02T09:16:51.520Z</time>
      </trkpt>
      <trkpt lat="45.41222" lon="5.53448">
        <ele>570</ele>
        <time>2012-06-02T09:16:55.520Z</time>
      </trkpt>
      <trkpt lat="45.41226" lon="5.53443">
        <ele>569.5</ele>
        <time>2012-06-02T09:16:56.520Z</time>
      </trkpt>
      <trkpt lat="45.41283" lon="5.53414">
        <ele>580</ele>
        <time>2012-06-02T09:17:16.520Z</time>
      </trkpt>
      <trkpt lat="45.41352" lon="5.53366">
        <ele>590</ele>
        <time>2012-06-02T09:17:47.520Z</time>
      </trkpt>
      <trkpt lat="45.4138" lon="5.53353">
        <ele>588</ele>
        <time>2012-06-02T09:17:57.520Z</time>
      </trkpt>
      <trkpt lat="45.41429" lon="5.53309">
        <ele>586.5</ele>
        <time>2012-06-02T09:18:14.520Z</time>
      </trkpt>
      <trkpt lat="45.41459" lon="5.53295">
        <ele>586</ele>
        <time>2012-06-02T09:18:20.520Z</time>
      </trkpt>
      <trkpt lat="45.4151" lon="5.53307">
        <ele>585</ele>
        <time>2012-06-02T09:18:30.520Z</time>
      </trkpt>
      <trkpt lat="45.4154" lon="5.5331">
        <ele>594</ele>
        <time>2012-06-02T09:18:38.520Z</time>
      </trkpt>
      <trkpt lat="45.41546" lon="5.53307">
        <ele>597.5</ele>
        <time>2012-06-02T09:18:42.520Z</time>
      </trkpt>
      <trkpt lat="45.41565" lon="5.53312">
        <ele>602.5</ele>
        <time>2012-06-02T09:18:56.520Z</time>
      </trkpt>
      <trkpt lat="45.41604" lon="5.53315">
        <ele>609.5</ele>
        <time>2012-06-02T09:19:14.520Z</time>
      </trkpt>
      <trkpt lat="45.41648" lon="5.53311">
        <ele>616</ele>
        <time>2012-06-02T09:19:35.520Z</time>
      </trkpt>
      <trkpt lat="45.41705" lon="5.53321">
        <ele>608</ele>
        <time>2012-06-02T09:20:05.520Z</time>
      </trkpt>
      <trkpt lat="45.41759" lon="5.53317">
        <ele>608.5</ele>
        <time>2012-06-02T09:20:18.520Z</time>
      </trkpt>
      <trkpt lat="45.41802" lon="5.5332">
        <ele>605.5</ele>
        <time>2012-06-02T09:20:26.520Z</time>
      </trkpt>
      <trkpt lat="45.41835" lon="5.53309">
        <ele>597</ele>
        <time>2012-06-02T09:20:32.520Z</time>
      </trkpt>
      <trkpt lat="45.41842" lon="5.53303">
        <ele>593.5</ele>
        <time>2012-06-02T09:20:34.520Z</time>
      </trkpt>
      <trkpt lat="45.41855" lon="5.53279">
        <ele>591.5</ele>
        <time>2012-06-02T09:20:40.520Z</time>
      </trkpt>
      <trkpt lat="45.4186" lon="5.53254">
        <ele>590.5</ele>
        <time>2012-06-02T09:20:50.520Z</time>
      </trkpt>
      <trkpt lat="45.4186" lon="5.53233">
        <ele>585</ele>
        <time>2012-06-02T09:20:59.520Z</time>
      </trkpt>
      <trkpt lat="45.41845" lon="5.53225">
        <ele>584</ele>
        <time>2012-06-02T09:21:06.520Z</time>
      </trkpt>
      <trkpt lat="45.41818" lon="5.53196">
        <ele>581</ele>
        <time>2012-06-02T09:21:18.520Z</time>
      </trkpt>
      <trkpt lat="45.41788" lon="5.53173">
        <ele>577</ele>
        <time>2012-06-02T09:21:25.520Z</time>
      </trkpt>
      <trkpt lat="45.41776" lon="5.53151">
        <ele>577.5</ele>
        <time>2012-06-02T09:21:28.520Z</time>
      </trkpt>
      <trkpt lat="45.4173" lon="5.52994">
        <ele>560</ele>
        <time>2012-06-02T09:21:43.520Z</time>
      </trkpt>
      <trkpt lat="45.41716" lon="5.5297">
        <ele>558</ele>
        <time>2012-06-02T09:21:46.520Z</time>
      </trkpt>
      <trkpt lat="45.41703" lon="5.52959">
        <ele>557</ele>
        <time>2012-06-02T09:21:48.520Z</time>
      </trkpt>
      <trkpt lat="45.41682" lon="5.52949">
        <ele>556.5</ele>
        <time>2012-06-02T09:21:52.520Z</time>
      </trkpt>
      <trkpt lat="45.41648" lon="5.52956">
        <ele>562</ele>
        <time>2012-06-02T09:22:12.520Z</time>
      </trkpt>
      <trkpt lat="45.41634" lon="5.52963">
        <ele>561.5</ele>
        <time>2012-06-02T09:22:17.520Z</time>
      </trkpt>
      <trkpt lat="45.41595" lon="5.53">
        <ele>557</ele>
        <time>2012-06-02T09:22:29.520Z</time>
      </trkpt>
      <trkpt lat="45.41559" lon="5.53047">
        <ele>551.5</ele>
        <time>2012-06-02T09:22:36.520Z</time>
      </trkpt>
      <trkpt lat="45.41518" lon="5.53072">
        <ele>551</ele>
        <time>2012-06-02T09:22:46.520Z</time>
      </trkpt>
      <trkpt lat="45.41508" lon="5.53087">
        <ele>551.5</ele>
        <time>2012-06-02T09:22:51.190Z</time>
      </trkpt>
      <trkpt lat="45.41498" lon="5.53094">
        <ele>551.5</ele>
        <time>2012-06-02T09:22:55.520Z</time>
      </trkpt>
      <trkpt lat="45.41485" lon="5.53094">
        <ele>557</ele>
        <time>2012-06-02T09:23:03.290Z</time>
      </trkpt>
      <trkpt lat="45.41431" lon="5.5311">
        <ele>563.5</ele>
        <time>2012-06-02T09:23:27.290Z</time>
      </trkpt>
      <trkpt lat="45.41363" lon="5.53111">
        <ele>560</ele>
        <time>2012-06-02T09:23:46.290Z</time>
      </trkpt>
      <trkpt lat="45.41347" lon="5.53104">
        <ele>559.5</ele>
        <time>2012-06-02T09:23:50.190Z</time>
      </trkpt>
      <trkpt lat="45.41272" lon="5.53133">
        <ele>552.5</ele>
        <time>2012-06-02T09:24:07.290Z</time>
      </trkpt>
      <trkpt lat="45.4126" lon="5.53131">
        <ele>552.5</ele>
        <time>2012-06-02T09:24:32.290Z</time>
      </trkpt>
      <trkpt lat="45.4124" lon="5.53143">
        <ele>550.5</ele>
        <time>2012-06-02T09:24:38.190Z</time>
      </trkpt>
      <trkpt lat="45.41198" lon="5.53177">
        <ele>550</ele>
        <time>2012-06-02T09:24:49.290Z</time>
      </trkpt>
      <trkpt lat="45.41185" lon="5.53182">
        <ele>551</ele>
        <time>2012-06-02T09:24:52.290Z</time>
      </trkpt>
      <trkpt lat="45.41149" lon="5.53185">
        <ele>549.5</ele>
        <time>2012-06-02T09:24:59.190Z</time>
      </trkpt>
      <trkpt lat="45.41085" lon="5.53171">
        <ele>556.5</ele>
        <time>2012-06-02T09:25:11.290Z</time>
      </trkpt>
      <trkpt lat="45.41067" lon="5.53172">
        <ele>553.5</ele>
        <time>2012-06-02T09:25:14.290Z</time>
      </trkpt>
      <trkpt lat="45.41046" lon="5.53166">
        <ele>550.5</ele>
        <time>2012-06-02T09:25:18.190Z</time>
      </trkpt>
      <trkpt lat="45.41037" lon="5.53144">
        <ele>546</ele>
        <time>2012-06-02T09:25:24.190Z</time>
      </trkpt>
      <trkpt lat="45.41024" lon="5.53141">
        <ele>547.5</ele>
        <time>2012-06-02T09:25:32.190Z</time>
      </trkpt>
      <trkpt lat="45.41026" lon="5.53134">
        <ele>545.5</ele>
        <time>2012-06-02T09:25:37.190Z</time>
      </trkpt>
      <trkpt lat="45.41025" lon="5.53135">
        <ele>547</ele>
        <time>2012-06-02T09:25:38.290Z</time>
      </trkpt>
      <trkpt lat="45.41026" lon="5.53133">
        <ele>547</ele>
        <time>2012-06-02T09:25:40.290Z</time>
      </trkpt>
      <trkpt lat="45.41009" lon="5.53134">
        <ele>553.5</ele>
        <time>2012-06-02T09:25:52.290Z</time>
      </trkpt>
      <trkpt lat="45.40997" lon="5.53125">
        <ele>559.5</ele>
        <time>2012-06-02T09:26:02.190Z</time>
      </trkpt>
      <trkpt lat="45.40953" lon="5.53118">
        <ele>577.5</ele>
        <time>2012-06-02T09:26:44.900Z</time>
      </trkpt>
      <trkpt lat="45.40947" lon="5.53113">
        <ele>579</ele>
        <time>2012-06-02T09:26:51.190Z</time>
      </trkpt>
      <trkpt lat="45.40945" lon="5.53115">
        <ele>582</ele>
        <time>2012-06-02T09:26:54.190Z</time>
      </trkpt>
      <trkpt lat="45.40943" lon="5.53108">
        <ele>581</ele>
        <time>2012-06-02T09:26:58.190Z</time>
      </trkpt>
      <trkpt lat="45.40936" lon="5.53106">
        <ele>582.5</ele>
        <time>2012-06-02T09:27:04.190Z</time>
      </trkpt>
      <trkpt lat="45.40926" lon="5.53114">
        <ele>592.5</ele>
        <time>2012-06-02T09:27:14.190Z</time>
      </trkpt>
      <trkpt lat="45.40928" lon="5.53096">
        <ele>588.5</ele>
        <time>2012-06-02T09:27:18.190Z</time>
      </trkpt>
      <trkpt lat="45.40925" lon="5.53096">
        <ele>592.5</ele>
        <time>2012-06-02T09:27:22.190Z</time>
      </trkpt>
      <trkpt lat="45.40923" lon="5.5309">
        <ele>592</ele>
        <time>2012-06-02T09:27:26.190Z</time>
      </trkpt>
      <trkpt lat="45.40915" lon="5.53085">
        <ele>588.5</ele>
        <time>2012-06-02T09:27:35.190Z</time>
      </trkpt>
      <trkpt lat="45.40915" lon="5.53073">
        <ele>593.5</ele>
        <time>2012-06-02T09:27:43.190Z</time>
      </trkpt>
      <trkpt lat="45.40888" lon="5.53071">
        <ele>602.5</ele>
        <time>2012-06-02T09:28:02.190Z</time>
      </trkpt>
      <trkpt lat="45.40872" lon="5.53065">
        <ele>597.5</ele>
        <time>2012-06-02T09:28:17.290Z</time>
      </trkpt>
      <trkpt lat="45.40868" lon="5.5305">
        <ele>594.5</ele>
        <time>2012-06-02T09:28:26.190Z</time>
      </trkpt>
      <trkpt lat="45.40853" lon="5.53034">
        <ele>591</ele>
        <time>2012-06-02T09:28:36.190Z</time>
      </trkpt>
      <trkpt lat="45.40838" lon="5.53009">
        <ele>596</ele>
        <time>2012-06-02T09:28:54.900Z</time>
      </trkpt>
      <trkpt lat="45.40817" lon="5.52991">
        <ele>598</ele>
        <time>2012-06-02T09:29:11.190Z</time>
      </trkpt>
      <trkpt lat="45.40824" lon="5.52969">
        <ele>593</ele>
        <time>2012-06-02T09:29:14.190Z</time>
      </trkpt>
      <trkpt lat="45.40817" lon="5.52959">
        <ele>596.5</ele>
        <time>2012-06-02T09:29:23.190Z</time>
      </trkpt>
      <trkpt lat="45.40817" lon="5.52946">
        <ele>592.5</ele>
        <time>2012-06-02T09:29:27.190Z</time>
      </trkpt>
      <trkpt lat="45.40808" lon="5.52928">
        <ele>595</ele>
        <time>2012-06-02T09:29:39.190Z</time>
      </trkpt>
      <trkpt lat="45.40809" lon="5.52914">
        <ele>591</ele>
        <time>2012-06-02T09:29:42.190Z</time>
      </trkpt>
      <trkpt lat="45.40804" lon="5.52906">
        <ele>592</ele>
        <time>2012-06-02T09:29:51.900Z</time>
      </trkpt>
      <trkpt lat="45.40806" lon="5.52896">
        <ele>587.5</ele>
        <time>2012-06-02T09:32:37.990Z</time>
      </trkpt>
      <trkpt lat="45.40793" lon="5.52869">
        <ele>584</ele>
        <time>2012-06-02T09:33:03.990Z</time>
      </trkpt>
      <trkpt lat="45.40777" lon="5.52842">
        <ele>581.5</ele>
        <time>2012-06-02T09:33:12.990Z</time>
      </trkpt>
      <trkpt lat="45.40731" lon="5.52734">
        <ele>575.5</ele>
        <time>2012-06-02T09:33:36.990Z</time>
      </trkpt>
      <trkpt lat="45.40669" lon="5.52602">
        <ele>573.5</ele>
        <time>2012-06-02T09:34:04.990Z</time>
      </trkpt>
      <trkpt lat="45.4064" lon="5.52547">
        <ele>572.5</ele>
        <time>2012-06-02T09:34:15.980Z</time>
      </trkpt>
      <trkpt lat="45.40579" lon="5.52483">
        <ele>570.5</ele>
        <time>2012-06-02T09:34:31.980Z</time>
      </trkpt>
      <trkpt lat="45.40528" lon="5.52433">
        <ele>569</ele>
        <time>2012-06-02T09:34:43.980Z</time>
      </trkpt>
      <trkpt lat="45.40509" lon="5.52409">
        <ele>568</ele>
        <time>2012-06-02T09:34:48.980Z</time>
      </trkpt>
      <trkpt lat="45.40506" lon="5.52396">
        <ele>567.5</ele>
        <time>2012-06-02T09:34:50.980Z</time>
      </trkpt>
      <trkpt lat="45.40511" lon="5.52384">
        <ele>567.5</ele>
        <time>2012-06-02T09:34:52.980Z</time>
      </trkpt>
      <trkpt lat="45.40529" lon="5.52366">
        <ele>568</ele>
        <time>2012-06-02T09:34:57.980Z</time>
      </trkpt>
      <trkpt lat="45.40568" lon="5.52274">
        <ele>568.5</ele>
        <time>2012-06-02T09:35:18.970Z</time>
      </trkpt>
      <trkpt lat="45.40568" lon="5.52267">
        <ele>568.5</ele>
        <time>2012-06-02T09:35:20.970Z</time>
      </trkpt>
      <trkpt lat="45.40565" lon="5.52266">
        <ele>568.5</ele>
        <time>2012-06-02T09:35:21.970Z</time>
      </trkpt>
      <trkpt lat="45.40551" lon="5.52215">
        <ele>570</ele>
        <time>2012-06-02T09:35:32.970Z</time>
      </trkpt>
      <trkpt lat="45.40551" lon="5.52179">
        <ele>570</ele>
        <time>2012-06-02T09:35:39.980Z</time>
      </trkpt>
      <trkpt lat="45.40563" lon="5.52065">
        <ele>573.5</ele>
        <time>2012-06-02T09:36:06.970Z</time>
      </trkpt>
      <trkpt lat="45.40582" lon="5.51985">
        <ele>575</ele>
        <time>2012-06-02T09:36:26.970Z</time>
      </trkpt>
      <trkpt lat="45.40589" lon="5.5194">
        <ele>577.5</ele>
        <time>2012-06-02T09:36:37.970Z</time>
      </trkpt>
      <trkpt lat="45.40592" lon="5.51851">
        <ele>582.5</ele>
        <time>2012-06-02T09:37:02.970Z</time>
      </trkpt>
      <trkpt lat="45.4059" lon="5.51761">
        <ele>586.5</ele>
        <time>2012-06-02T09:37:29.960Z</time>
      </trkpt>
      <trkpt lat="45.40587" lon="5.51758">
        <ele>586.5</ele>
        <time>2012-06-02T09:37:31.960Z</time>
      </trkpt>
      <trkpt lat="45.4052" lon="5.51741">
        <ele>588.5</ele>
        <time>2012-06-02T09:37:53.960Z</time>
      </trkpt>
      <trkpt lat="45.40484" lon="5.51744">
        <ele>593</ele>
        <time>2012-06-02T09:38:03.960Z</time>
      </trkpt>
      <trkpt lat="45.40478" lon="5.51747">
        <ele>594</ele>
        <time>2012-06-02T09:38:05.950Z</time>
      </trkpt>
      <trkpt lat="45.40446" lon="5.51832">
        <ele>592.5</ele>
        <time>2012-06-02T09:38:23.960Z</time>
      </trkpt>
      <trkpt lat="45.40446" lon="5.51859">
        <ele>593</ele>
        <time>2012-06-02T09:38:27.960Z</time>
      </trkpt>
      <trkpt lat="45.4044" lon="5.51919">
        <ele>594.5</ele>
        <time>2012-06-02T09:38:34.950Z</time>
      </trkpt>
      <trkpt lat="45.4043" lon="5.51944">
        <ele>594</ele>
        <time>2012-06-02T09:38:37.960Z</time>
      </trkpt>
      <trkpt lat="45.40417" lon="5.51961">
        <ele>594</ele>
        <time>2012-06-02T09:38:40.950Z</time>
      </trkpt>
      <trkpt lat="45.40393" lon="5.51973">
        <ele>594</ele>
        <time>2012-06-02T09:38:45.950Z</time>
      </trkpt>
      <trkpt lat="45.40308" lon="5.51969">
        <ele>582.5</ele>
        <time>2012-06-02T09:39:00.950Z</time>
      </trkpt>
      <trkpt lat="45.40263" lon="5.51958">
        <ele>578.5</ele>
        <time>2012-06-02T09:39:07.960Z</time>
      </trkpt>
      <trkpt lat="45.4025" lon="5.5195">
        <ele>577</ele>
        <time>2012-06-02T09:39:09.950Z</time>
      </trkpt>
      <trkpt lat="45.40179" lon="5.51879">
        <ele>568.5</ele>
        <time>2012-06-02T09:39:23.940Z</time>
      </trkpt>
      <trkpt lat="45.40145" lon="5.51852">
        <ele>567.5</ele>
        <time>2012-06-02T09:39:30.940Z</time>
      </trkpt>
      <trkpt lat="45.40078" lon="5.51777">
        <ele>563</ele>
        <time>2012-06-02T09:39:48.940Z</time>
      </trkpt>
      <trkpt lat="45.40052" lon="5.51752">
        <ele>562</ele>
        <time>2012-06-02T09:39:54.940Z</time>
      </trkpt>
      <trkpt lat="45.40024" lon="5.51714">
        <ele>560.5</ele>
        <time>2012-06-02T09:40:01.940Z</time>
      </trkpt>
      <trkpt lat="45.40006" lon="5.51675">
        <ele>559</ele>
        <time>2012-06-02T09:40:07.940Z</time>
      </trkpt>
      <trkpt lat="45.39973" lon="5.51581">
        <ele>555.5</ele>
        <time>2012-06-02T09:40:20.940Z</time>
      </trkpt>
      <trkpt lat="45.39959" lon="5.51525">
        <ele>554</ele>
        <time>2012-06-02T09:40:27.930Z</time>
      </trkpt>
      <trkpt lat="45.39956" lon="5.51519">
        <ele>554</ele>
        <time>2012-06-02T09:40:30.930Z</time>
      </trkpt>
      <trkpt lat="45.39958" lon="5.51519">
        <ele>554.5</ele>
        <time>2012-06-02T09:40:33.930Z</time>
      </trkpt>
      <trkpt lat="45.39961" lon="5.5154">
        <ele>555</ele>
        <time>2012-06-02T09:40:45.940Z</time>
      </trkpt>
      <trkpt lat="45.39939" lon="5.51444">
        <ele>553.5</ele>
        <time>2012-06-02T09:41:13.930Z</time>
      </trkpt>
      <trkpt lat="45.39934" lon="5.51408">
        <ele>553</ele>
        <time>2012-06-02T09:41:18.930Z</time>
      </trkpt>
      <trkpt lat="45.39933" lon="5.51362">
        <ele>553</ele>
        <time>2012-06-02T09:41:24.930Z</time>
      </trkpt>
      <trkpt lat="45.39941" lon="5.51282">
        <ele>555.5</ele>
        <time>2012-06-02T09:41:36.930Z</time>
      </trkpt>
      <trkpt lat="45.3994" lon="5.51222">
        <ele>555.5</ele>
        <time>2012-06-02T09:41:45.930Z</time>
      </trkpt>
      <trkpt lat="45.39936" lon="5.51167">
        <ele>554.5</ele>
        <time>2012-06-02T09:41:52.930Z</time>
      </trkpt>
      <trkpt lat="45.39936" lon="5.51064">
        <ele>551.5</ele>
        <time>2012-06-02T09:42:03.920Z</time>
      </trkpt>
      <trkpt lat="45.39933" lon="5.50995">
        <ele>549.5</ele>
        <time>2012-06-02T09:42:09.920Z</time>
      </trkpt>
      <trkpt lat="45.39928" lon="5.5096">
        <ele>548.5</ele>
        <time>2012-06-02T09:42:12.930Z</time>
      </trkpt>
      <trkpt lat="45.39914" lon="5.50893">
        <ele>546.5</ele>
        <time>2012-06-02T09:42:18.920Z</time>
      </trkpt>
      <trkpt lat="45.39906" lon="5.50842">
        <ele>546.5</ele>
        <time>2012-06-02T09:42:23.920Z</time>
      </trkpt>
      <trkpt lat="45.39899" lon="5.50832">
        <ele>546.5</ele>
        <time>2012-06-02T09:42:25.930Z</time>
      </trkpt>
      <trkpt lat="45.39844" lon="5.50823">
        <ele>560</ele>
        <time>2012-06-02T09:42:50.930Z</time>
      </trkpt>
      <trkpt lat="45.39802" lon="5.50825">
        <ele>561.5</ele>
        <time>2012-06-02T09:43:06.920Z</time>
      </trkpt>
      <trkpt lat="45.39782" lon="5.50837">
        <ele>561.5</ele>
        <time>2012-06-02T09:43:14.920Z</time>
      </trkpt>
      <trkpt lat="45.39776" lon="5.50834">
        <ele>561</ele>
        <time>2012-06-02T09:43:16.920Z</time>
      </trkpt>
      <trkpt lat="45.39764" lon="5.50817">
        <ele>559.5</ele>
        <time>2012-06-02T09:43:21.910Z</time>
      </trkpt>
      <trkpt lat="45.39757" lon="5.50818">
        <ele>560.5</ele>
        <time>2012-06-02T09:43:23.920Z</time>
      </trkpt>
      <trkpt lat="45.39752" lon="5.50825">
        <ele>560.5</ele>
        <time>2012-06-02T09:43:25.910Z</time>
      </trkpt>
      <trkpt lat="45.39746" lon="5.50847">
        <ele>560</ele>
        <time>2012-06-02T09:43:29.910Z</time>
      </trkpt>
      <trkpt lat="45.3972" lon="5.50901">
        <ele>557</ele>
        <time>2012-06-02T09:43:39.910Z</time>
      </trkpt>
      <trkpt lat="45.39597" lon="5.51115">
        <ele>545.5</ele>
        <time>2012-06-02T09:44:17.910Z</time>
      </trkpt>
      <trkpt lat="45.39583" lon="5.51134">
        <ele>544</ele>
        <time>2012-06-02T09:44:20.910Z</time>
      </trkpt>
      <trkpt lat="45.3956" lon="5.51153">
        <ele>543</ele>
        <time>2012-06-02T09:44:24.910Z</time>
      </trkpt>
      <trkpt lat="45.39479" lon="5.51202">
        <ele>539</ele>
        <time>2012-06-02T09:44:39.900Z</time>
      </trkpt>
      <trkpt lat="45.39469" lon="5.512">
        <ele>539</ele>
        <time>2012-06-02T09:44:56.900Z</time>
      </trkpt>
      <trkpt lat="45.3941" lon="5.5123">
        <ele>541</ele>
        <time>2012-06-02T09:45:08.900Z</time>
      </trkpt>
      <trkpt lat="45.39391" lon="5.51251">
        <ele>539.5</ele>
        <time>2012-06-02T09:45:12.910Z</time>
      </trkpt>
      <trkpt lat="45.39389" lon="5.51257">
        <ele>539</ele>
        <time>2012-06-02T09:45:13.900Z</time>
      </trkpt>
      <trkpt lat="45.39408" lon="5.51294">
        <ele>537.5</ele>
        <time>2012-06-02T09:45:19.910Z</time>
      </trkpt>
      <trkpt lat="45.39419" lon="5.51337">
        <ele>533.5</ele>
        <time>2012-06-02T09:45:25.910Z</time>
      </trkpt>
      <trkpt lat="45.39423" lon="5.51364">
        <ele>527.5</ele>
        <time>2012-06-02T09:45:30.910Z</time>
      </trkpt>
      <trkpt lat="45.39423" lon="5.51389">
        <ele>524.5</ele>
        <time>2012-06-02T09:45:34.900Z</time>
      </trkpt>
      <trkpt lat="45.39426" lon="5.51418">
        <ele>519.5</ele>
        <time>2012-06-02T09:45:39.900Z</time>
      </trkpt>
      <trkpt lat="45.39422" lon="5.51427">
        <ele>517.5</ele>
        <time>2012-06-02T09:45:41.890Z</time>
      </trkpt>
      <trkpt lat="45.3941" lon="5.5143">
        <ele>518</ele>
        <time>2012-06-02T09:45:44.900Z</time>
      </trkpt>
      <trkpt lat="45.39366" lon="5.51403">
        <ele>509.5</ele>
        <time>2012-06-02T09:45:54.900Z</time>
      </trkpt>
      <trkpt lat="45.39341" lon="5.51399">
        <ele>505.5</ele>
        <time>2012-06-02T09:46:00.890Z</time>
      </trkpt>
      <trkpt lat="45.39319" lon="5.51414">
        <ele>510</ele>
        <time>2012-06-02T09:46:08.900Z</time>
      </trkpt>
      <trkpt lat="45.39312" lon="5.51422">
        <ele>513</ele>
        <time>2012-06-02T09:46:11.900Z</time>
      </trkpt>
      <trkpt lat="45.39308" lon="5.51435">
        <ele>515</ele>
        <time>2012-06-02T09:46:15.900Z</time>
      </trkpt>
      <trkpt lat="45.3931" lon="5.51464">
        <ele>512.5</ele>
        <time>2012-06-02T09:46:21.890Z</time>
      </trkpt>
      <trkpt lat="45.39308" lon="5.51484">
        <ele>510</ele>
        <time>2012-06-02T09:46:25.900Z</time>
      </trkpt>
      <trkpt lat="45.39296" lon="5.51523">
        <ele>496.5</ele>
        <time>2012-06-02T09:46:57.890Z</time>
      </trkpt>
      <trkpt lat="45.39292" lon="5.51527">
        <ele>493.5</ele>
        <time>2012-06-02T09:47:12.900Z</time>
      </trkpt>
      <trkpt lat="45.39286" lon="5.51542">
        <ele>487</ele>
        <time>2012-06-02T09:47:46.890Z</time>
      </trkpt>
      <trkpt lat="45.39254" lon="5.51561">
        <ele>492</ele>
        <time>2012-06-02T09:48:09.880Z</time>
      </trkpt>
      <trkpt lat="45.39223" lon="5.5157">
        <ele>492</ele>
        <time>2012-06-02T09:48:22.880Z</time>
      </trkpt>
      <trkpt lat="45.39215" lon="5.51578">
        <ele>492</ele>
        <time>2012-06-02T09:48:27.880Z</time>
      </trkpt>
      <trkpt lat="45.39192" lon="5.51628">
        <ele>506.5</ele>
        <time>2012-06-02T09:48:53.880Z</time>
      </trkpt>
      <trkpt lat="45.39172" lon="5.51653">
        <ele>517</ele>
        <time>2012-06-02T09:49:11.880Z</time>
      </trkpt>
      <trkpt lat="45.39147" lon="5.5167">
        <ele>523.5</ele>
        <time>2012-06-02T09:49:35.890Z</time>
      </trkpt>
      <trkpt lat="45.39131" lon="5.51691">
        <ele>524.5</ele>
        <time>2012-06-02T09:49:44.880Z</time>
      </trkpt>
      <trkpt lat="45.39103" lon="5.51709">
        <ele>528.5</ele>
        <time>2012-06-02T09:50:04.880Z</time>
      </trkpt>
      <trkpt lat="45.39099" lon="5.51707">
        <ele>527</ele>
        <time>2012-06-02T09:50:07.880Z</time>
      </trkpt>
      <trkpt lat="45.39094" lon="5.51696">
        <ele>522</ele>
        <time>2012-06-02T09:50:15.870Z</time>
      </trkpt>
      <trkpt lat="45.39086" lon="5.51664">
        <ele>517</ele>
        <time>2012-06-02T09:50:28.880Z</time>
      </trkpt>
      <trkpt lat="45.39083" lon="5.51635">
        <ele>513</ele>
        <time>2012-06-02T09:50:37.880Z</time>
      </trkpt>
      <trkpt lat="45.39074" lon="5.51603">
        <ele>506.5</ele>
        <time>2012-06-02T09:50:50.880Z</time>
      </trkpt>
      <trkpt lat="45.39039" lon="5.51508">
        <ele>505.5</ele>
        <time>2012-06-02T09:51:33.870Z</time>
      </trkpt>
      <trkpt lat="45.39049" lon="5.51469">
        <ele>508</ele>
        <time>2012-06-02T09:51:57.880Z</time>
      </trkpt>
      <trkpt lat="45.39051" lon="5.51451">
        <ele>511</ele>
        <time>2012-06-02T09:52:08.870Z</time>
      </trkpt>
      <trkpt lat="45.39054" lon="5.51442">
        <ele>514</ele>
        <time>2012-06-02T09:52:12.880Z</time>
      </trkpt>
      <trkpt lat="45.39052" lon="5.51424">
        <ele>522</ele>
        <time>2012-06-02T09:52:23.870Z</time>
      </trkpt>
      <trkpt lat="45.39043" lon="5.51411">
        <ele>525</ele>
        <time>2012-06-02T09:52:32.870Z</time>
      </trkpt>
      <trkpt lat="45.39044" lon="5.51407">
        <ele>524</ele>
        <time>2012-06-02T09:52:33.870Z</time>
      </trkpt>
      <trkpt lat="45.39037" lon="5.51396">
        <ele>522</ele>
        <time>2012-06-02T09:52:39.870Z</time>
      </trkpt>
      <trkpt lat="45.39034" lon="5.51381">
        <ele>517</ele>
        <time>2012-06-02T09:52:43.870Z</time>
      </trkpt>
      <trkpt lat="45.39026" lon="5.51362">
        <ele>518</ele>
        <time>2012-06-02T09:52:51.870Z</time>
      </trkpt>
      <trkpt lat="45.3902" lon="5.51326">
        <ele>519</ele>
        <time>2012-06-02T09:53:03.870Z</time>
      </trkpt>
      <trkpt lat="45.39022" lon="5.51309">
        <ele>521</ele>
        <time>2012-06-02T09:53:07.860Z</time>
      </trkpt>
      <trkpt lat="45.39037" lon="5.51244">
        <ele>530</ele>
        <time>2012-06-02T09:53:16.860Z</time>
      </trkpt>
      <trkpt lat="45.39035" lon="5.51204">
        <ele>542.5</ele>
        <time>2012-06-02T09:53:25.860Z</time>
      </trkpt>
      <trkpt lat="45.39021" lon="5.51195">
        <ele>544</ele>
        <time>2012-06-02T09:53:30.860Z</time>
      </trkpt>
      <trkpt lat="45.39011" lon="5.51183">
        <ele>543.5</ele>
        <time>2012-06-02T09:53:35.860Z</time>
      </trkpt>
      <trkpt lat="45.39005" lon="5.51151">
        <ele>535.5</ele>
        <time>2012-06-02T09:53:42.860Z</time>
      </trkpt>
      <trkpt lat="45.38981" lon="5.51097">
        <ele>519.5</ele>
        <time>2012-06-02T09:53:59.860Z</time>
      </trkpt>
      <trkpt lat="45.38928" lon="5.51026">
        <ele>513</ele>
        <time>2012-06-02T09:54:30.850Z</time>
      </trkpt>
      <trkpt lat="45.3892" lon="5.51025">
        <ele>511</ele>
        <time>2012-06-02T09:54:36.850Z</time>
      </trkpt>
      <trkpt lat="45.38892" lon="5.51116">
        <ele>506.5</ele>
        <time>2012-06-02T09:55:13.850Z</time>
      </trkpt>
      <trkpt lat="45.38884" lon="5.51127">
        <ele>508.5</ele>
        <time>2012-06-02T09:55:21.850Z</time>
      </trkpt>
      <trkpt lat="45.3887" lon="5.51154">
        <ele>508</ele>
        <time>2012-06-02T09:56:57.850Z</time>
      </trkpt>
      <trkpt lat="45.38867" lon="5.51173">
        <ele>508.5</ele>
        <time>2012-06-02T09:57:04.840Z</time>
      </trkpt>
      <trkpt lat="45.38863" lon="5.51219">
        <ele>511</ele>
        <time>2012-06-02T09:57:20.840Z</time>
      </trkpt>
      <trkpt lat="45.38865" lon="5.5124">
        <ele>513</ele>
        <time>2012-06-02T09:57:27.840Z</time>
      </trkpt>
      <trkpt lat="45.38882" lon="5.51307">
        <ele>530.5</ele>
        <time>2012-06-02T09:57:56.840Z</time>
      </trkpt>
      <trkpt lat="45.38881" lon="5.51403">
        <ele>543.5</ele>
        <time>2012-06-02T09:58:36.840Z</time>
      </trkpt>
      <trkpt lat="45.38878" lon="5.51419">
        <ele>546.5</ele>
        <time>2012-06-02T09:58:43.830Z</time>
      </trkpt>
      <trkpt lat="45.38879" lon="5.51435">
        <ele>545</ele>
        <time>2012-06-02T09:58:48.840Z</time>
      </trkpt>
      <trkpt lat="45.38869" lon="5.51487">
        <ele>543</ele>
        <time>2012-06-02T09:59:06.830Z</time>
      </trkpt>
      <trkpt lat="45.38842" lon="5.5152">
        <ele>545</ele>
        <time>2012-06-02T09:59:21.830Z</time>
      </trkpt>
      <trkpt lat="45.38798" lon="5.51595">
        <ele>539.5</ele>
        <time>2012-06-02T09:59:48.830Z</time>
      </trkpt>
      <trkpt lat="45.38783" lon="5.51631">
        <ele>532</ele>
        <time>2012-06-02T10:01:30.820Z</time>
      </trkpt>
      <trkpt lat="45.38724" lon="5.51614">
        <ele>528.5</ele>
        <time>2012-06-02T10:01:50.810Z</time>
      </trkpt>
      <trkpt lat="45.38631" lon="5.51594">
        <ele>526</ele>
        <time>2012-06-02T10:02:13.820Z</time>
      </trkpt>
      <trkpt lat="45.38476" lon="5.5155">
        <ele>525</ele>
        <time>2012-06-02T10:02:52.800Z</time>
      </trkpt>
      <trkpt lat="45.38454" lon="5.5155">
        <ele>525.5</ele>
        <time>2012-06-02T10:02:57.800Z</time>
      </trkpt>
      <trkpt lat="45.38424" lon="5.51559">
        <ele>526</ele>
        <time>2012-06-02T10:03:04.800Z</time>
      </trkpt>
      <trkpt lat="45.38385" lon="5.51585">
        <ele>527</ele>
        <time>2012-06-02T10:03:14.800Z</time>
      </trkpt>
      <trkpt lat="45.38365" lon="5.51603">
        <ele>527.5</ele>
        <time>2012-06-02T10:03:20.800Z</time>
      </trkpt>
      <trkpt lat="45.38341" lon="5.51631">
        <ele>528.5</ele>
        <time>2012-06-02T10:03:29.790Z</time>
      </trkpt>
      <trkpt lat="45.38265" lon="5.51693">
        <ele>525.5</ele>
        <time>2012-06-02T10:03:51.790Z</time>
      </trkpt>
      <trkpt lat="45.38247" lon="5.51701">
        <ele>525.5</ele>
        <time>2012-06-02T10:03:56.790Z</time>
      </trkpt>
      <trkpt lat="45.38227" lon="5.51701">
        <ele>527</ele>
        <time>2012-06-02T10:04:03.790Z</time>
      </trkpt>
      <trkpt lat="45.38206" lon="5.51736">
        <ele>531.5</ele>
        <time>2012-06-02T10:04:18.790Z</time>
      </trkpt>
      <trkpt lat="45.38178" lon="5.51769">
        <ele>534.5</ele>
        <time>2012-06-02T10:04:33.790Z</time>
      </trkpt>
      <trkpt lat="45.38149" lon="5.51785">
        <ele>536.5</ele>
        <time>2012-06-02T10:04:45.790Z</time>
      </trkpt>
      <trkpt lat="45.38114" lon="5.51793">
        <ele>538</ele>
        <time>2012-06-02T10:05:00.780Z</time>
      </trkpt>
      <trkpt lat="45.38108" lon="5.51799">
        <ele>538</ele>
        <time>2012-06-02T10:05:05.790Z</time>
      </trkpt>
      <trkpt lat="45.38114" lon="5.5183">
        <ele>544</ele>
        <time>2012-06-02T10:05:24.780Z</time>
      </trkpt>
      <trkpt lat="45.38114" lon="5.5186">
        <ele>553</ele>
        <time>2012-06-02T10:05:41.790Z</time>
      </trkpt>
      <trkpt lat="45.38139" lon="5.51998">
        <ele>567</ele>
        <time>2012-06-02T10:06:17.780Z</time>
      </trkpt>
      <trkpt lat="45.38183" lon="5.52088">
        <ele>571.5</ele>
        <time>2012-06-02T10:06:42.780Z</time>
      </trkpt>
      <trkpt lat="45.3823" lon="5.52217">
        <ele>585.5</ele>
        <time>2012-06-02T10:07:15.780Z</time>
      </trkpt>
      <trkpt lat="45.38241" lon="5.52228">
        <ele>588.5</ele>
        <time>2012-06-02T10:07:20.770Z</time>
      </trkpt>
      <trkpt lat="45.38258" lon="5.52257">
        <ele>589.5</ele>
        <time>2012-06-02T10:07:28.780Z</time>
      </trkpt>
      <trkpt lat="45.38266" lon="5.52266">
        <ele>593</ele>
        <time>2012-06-02T10:07:32.760Z</time>
      </trkpt>
      <trkpt lat="45.38285" lon="5.52306">
        <ele>582</ele>
        <time>2012-06-02T10:07:39.760Z</time>
      </trkpt>
      <trkpt lat="45.38318" lon="5.52363">
        <ele>575.5</ele>
        <time>2012-06-02T10:07:52.770Z</time>
      </trkpt>
      <trkpt lat="45.38337" lon="5.52411">
        <ele>568</ele>
        <time>2012-06-02T10:07:59.760Z</time>
      </trkpt>
      <trkpt lat="45.38406" lon="5.52511">
        <ele>558.5</ele>
        <time>2012-06-02T10:08:20.760Z</time>
      </trkpt>
      <trkpt lat="45.38429" lon="5.5254">
        <ele>558.5</ele>
        <time>2012-06-02T10:08:26.760Z</time>
      </trkpt>
      <trkpt lat="45.38438" lon="5.5256">
        <ele>556</ele>
        <time>2012-06-02T10:08:30.760Z</time>
      </trkpt>
      <trkpt lat="45.38441" lon="5.52576">
        <ele>550.5</ele>
        <time>2012-06-02T10:09:05.760Z</time>
      </trkpt>
      <trkpt lat="45.3845" lon="5.52587">
        <ele>550.5</ele>
        <time>2012-06-02T10:10:46.780Z</time>
      </trkpt>
      <trkpt lat="45.38432" lon="5.52627">
        <ele>540.5</ele>
        <time>2012-06-02T10:11:08.830Z</time>
      </trkpt>
      <trkpt lat="45.38426" lon="5.52634">
        <ele>537</ele>
        <time>2012-06-02T10:11:10.830Z</time>
      </trkpt>
      <trkpt lat="45.38401" lon="5.52632">
        <ele>532.5</ele>
        <time>2012-06-02T10:11:15.830Z</time>
      </trkpt>
      <trkpt lat="45.3839" lon="5.52637">
        <ele>529</ele>
        <time>2012-06-02T10:11:17.850Z</time>
      </trkpt>
      <trkpt lat="45.38377" lon="5.52654">
        <ele>523.5</ele>
        <time>2012-06-02T10:11:20.850Z</time>
      </trkpt>
      <trkpt lat="45.38364" lon="5.52679">
        <ele>518</ele>
        <time>2012-06-02T10:11:24.850Z</time>
      </trkpt>
      <trkpt lat="45.38242" lon="5.52792">
        <ele>499.5</ele>
        <time>2012-06-02T10:11:47.850Z</time>
      </trkpt>
      <trkpt lat="45.38237" lon="5.52792">
        <ele>500</ele>
        <time>2012-06-02T10:11:48.850Z</time>
      </trkpt>
      <trkpt lat="45.38229" lon="5.52776">
        <ele>500</ele>
        <time>2012-06-02T10:11:51.850Z</time>
      </trkpt>
      <trkpt lat="45.38214" lon="5.52766">
        <ele>499.5</ele>
        <time>2012-06-02T10:11:54.850Z</time>
      </trkpt>
      <trkpt lat="45.38193" lon="5.52761">
        <ele>498.5</ele>
        <time>2012-06-02T10:11:58.850Z</time>
      </trkpt>
      <trkpt lat="45.38152" lon="5.52758">
        <ele>497</ele>
        <time>2012-06-02T10:12:07.850Z</time>
      </trkpt>
      <trkpt lat="45.38122" lon="5.52739">
        <ele>496</ele>
        <time>2012-06-02T10:12:13.850Z</time>
      </trkpt>
      <trkpt lat="45.3811" lon="5.52737">
        <ele>495.5</ele>
        <time>2012-06-02T10:12:15.850Z</time>
      </trkpt>
      <trkpt lat="45.38034" lon="5.52758">
        <ele>492</ele>
        <time>2012-06-02T10:12:32.850Z</time>
      </trkpt>
      <trkpt lat="45.38032" lon="5.52756">
        <ele>492</ele>
        <time>2012-06-02T10:12:44.850Z</time>
      </trkpt>
      <trkpt lat="45.38026" lon="5.52734">
        <ele>491.5</ele>
        <time>2012-06-02T10:12:52.850Z</time>
      </trkpt>
      <trkpt lat="45.38023" lon="5.52731">
        <ele>491</ele>
        <time>2012-06-02T10:12:54.850Z</time>
      </trkpt>
      <trkpt lat="45.37952" lon="5.52768">
        <ele>490</ele>
        <time>2012-06-02T10:13:15.850Z</time>
      </trkpt>
      <trkpt lat="45.37944" lon="5.52766">
        <ele>489.5</ele>
        <time>2012-06-02T10:13:17.850Z</time>
      </trkpt>
      <trkpt lat="45.37931" lon="5.52751">
        <ele>490</ele>
        <time>2012-06-02T10:13:21.850Z</time>
      </trkpt>
      <trkpt lat="45.37917" lon="5.5274">
        <ele>489.5</ele>
        <time>2012-06-02T10:13:25.850Z</time>
      </trkpt>
      <trkpt lat="45.37889" lon="5.52743">
        <ele>490</ele>
        <time>2012-06-02T10:13:32.850Z</time>
      </trkpt>
      <trkpt lat="45.37804" lon="5.52766">
        <ele>486.5</ele>
        <time>2012-06-02T10:13:50.850Z</time>
      </trkpt>
      <trkpt lat="45.37778" lon="5.52764">
        <ele>486</ele>
        <time>2012-06-02T10:13:55.850Z</time>
      </trkpt>
      <trkpt lat="45.37742" lon="5.52756">
        <ele>484</ele>
        <time>2012-06-02T10:14:02.850Z</time>
      </trkpt>
      <trkpt lat="45.37726" lon="5.52755">
        <ele>483.5</ele>
        <time>2012-06-02T10:14:05.850Z</time>
      </trkpt>
      <trkpt lat="45.37657" lon="5.52772">
        <ele>479.5</ele>
        <time>2012-06-02T10:14:20.850Z</time>
      </trkpt>
      <trkpt lat="45.37638" lon="5.52781">
        <ele>479.5</ele>
        <time>2012-06-02T10:14:25.850Z</time>
      </trkpt>
      <trkpt lat="45.37606" lon="5.52808">
        <ele>478.5</ele>
        <time>2012-06-02T10:14:34.990Z</time>
      </trkpt>
      <trkpt lat="45.37438" lon="5.52919">
        <ele>478</ele>
        <time>2012-06-02T10:15:32.850Z</time>
      </trkpt>
      <trkpt lat="45.37369" lon="5.52995">
        <ele>477</ele>
        <time>2012-06-02T10:15:58.880Z</time>
      </trkpt>
      <trkpt lat="45.37362" lon="5.52997">
        <ele>477</ele>
        <time>2012-06-02T10:16:01.880Z</time>
      </trkpt>
      <trkpt lat="45.37311" lon="5.52916">
        <ele>472.5</ele>
        <time>2012-06-02T10:16:21.880Z</time>
      </trkpt>
      <trkpt lat="45.37284" lon="5.52886">
        <ele>469.5</ele>
        <time>2012-06-02T10:16:28.880Z</time>
      </trkpt>
      <trkpt lat="45.37271" lon="5.52877">
        <ele>468.5</ele>
        <time>2012-06-02T10:16:31.880Z</time>
      </trkpt>
      <trkpt lat="45.37222" lon="5.5286">
        <ele>464.5</ele>
        <time>2012-06-02T10:16:41.880Z</time>
      </trkpt>
      <trkpt lat="45.37212" lon="5.5285">
        <ele>463.5</ele>
        <time>2012-06-02T10:16:44.880Z</time>
      </trkpt>
      <trkpt lat="45.37182" lon="5.52791">
        <ele>461</ele>
        <time>2012-06-02T10:16:53.880Z</time>
      </trkpt>
      <trkpt lat="45.37177" lon="5.52786">
        <ele>461</ele>
        <time>2012-06-02T10:16:54.880Z</time>
      </trkpt>
      <trkpt lat="45.37131" lon="5.52718">
        <ele>459.5</ele>
        <time>2012-06-02T10:17:05.930Z</time>
      </trkpt>
      <trkpt lat="45.37124" lon="5.52696">
        <ele>458</ele>
        <time>2012-06-02T10:17:09.940Z</time>
      </trkpt>
      <trkpt lat="45.37128" lon="5.52687">
        <ele>458</ele>
        <time>2012-06-02T10:17:16.940Z</time>
      </trkpt>
      <trkpt lat="45.37125" lon="5.52682">
        <ele>458.5</ele>
        <time>2012-06-02T10:17:19.940Z</time>
      </trkpt>
      <trkpt lat="45.37081" lon="5.52671">
        <ele>456.5</ele>
        <time>2012-06-02T10:17:28.940Z</time>
      </trkpt>
      <trkpt lat="45.37053" lon="5.52688">
        <ele>455.5</ele>
        <time>2012-06-02T10:17:32.940Z</time>
      </trkpt>
      <trkpt lat="45.37045" lon="5.52702">
        <ele>457.5</ele>
        <time>2012-06-02T10:17:36.940Z</time>
      </trkpt>
      <trkpt lat="45.37043" lon="5.52698">
        <ele>457</ele>
        <time>2012-06-02T10:17:49.940Z</time>
      </trkpt>
      <trkpt lat="45.37018" lon="5.52745">
        <ele>447.5</ele>
        <time>2012-06-02T10:18:07.940Z</time>
      </trkpt>
      <trkpt lat="45.37006" lon="5.52757">
        <ele>446</ele>
        <time>2012-06-02T10:18:11.940Z</time>
      </trkpt>
      <trkpt lat="45.36991" lon="5.52782">
        <ele>445.5</ele>
        <time>2012-06-02T10:18:20.940Z</time>
      </trkpt>
      <trkpt lat="45.36971" lon="5.52792">
        <ele>445</ele>
        <time>2012-06-02T10:18:27.940Z</time>
      </trkpt>
      <trkpt lat="45.36929" lon="5.52821">
        <ele>445.5</ele>
        <time>2012-06-02T10:18:38.940Z</time>
      </trkpt>
      <trkpt lat="45.36902" lon="5.52852">
        <ele>445</ele>
        <time>2012-06-02T10:18:45.940Z</time>
      </trkpt>
      <trkpt lat="45.36808" lon="5.5291">
        <ele>440.5</ele>
        <time>2012-06-02T10:19:00.940Z</time>
      </trkpt>
      <trkpt lat="45.36794" lon="5.52914">
        <ele>439.5</ele>
        <time>2012-06-02T10:19:03.940Z</time>
      </trkpt>
      <trkpt lat="45.36786" lon="5.52905">
        <ele>439.5</ele>
        <time>2012-06-02T10:19:05.960Z</time>
      </trkpt>
      <trkpt lat="45.36754" lon="5.52827">
        <ele>436.5</ele>
        <time>2012-06-02T10:19:15.960Z</time>
      </trkpt>
      <trkpt lat="45.36735" lon="5.52799">
        <ele>435</ele>
        <time>2012-06-02T10:19:19.950Z</time>
      </trkpt>
      <trkpt lat="45.36696" lon="5.52756">
        <ele>433.5</ele>
        <time>2012-06-02T10:19:29.950Z</time>
      </trkpt>
      <trkpt lat="45.36663" lon="5.52748">
        <ele>431.5</ele>
        <time>2012-06-02T10:19:38.950Z</time>
      </trkpt>
      <trkpt lat="45.36637" lon="5.52746">
        <ele>432</ele>
        <time>2012-06-02T10:19:44.950Z</time>
      </trkpt>
      <trkpt lat="45.36588" lon="5.52763">
        <ele>433</ele>
        <time>2012-06-02T10:19:55.950Z</time>
      </trkpt>
      <trkpt lat="45.36575" lon="5.52761">
        <ele>435</ele>
        <time>2012-06-02T10:19:58.950Z</time>
      </trkpt>
      <trkpt lat="45.36562" lon="5.52748">
        <ele>436.5</ele>
        <time>2012-06-02T10:20:02.950Z</time>
      </trkpt>
      <trkpt lat="45.36517" lon="5.52673">
        <ele>435</ele>
        <time>2012-06-02T10:20:18.950Z</time>
      </trkpt>
      <trkpt lat="45.36486" lon="5.52603">
        <ele>433</ele>
        <time>2012-06-02T10:20:31.950Z</time>
      </trkpt>
      <trkpt lat="45.36478" lon="5.52579">
        <ele>432.5</ele>
        <time>2012-06-02T10:20:38.950Z</time>
      </trkpt>
      <trkpt lat="45.36457" lon="5.52566">
        <ele>435</ele>
        <time>2012-06-02T10:20:51.950Z</time>
      </trkpt>
      <trkpt lat="45.36448" lon="5.52547">
        <ele>435</ele>
        <time>2012-06-02T10:21:01.950Z</time>
      </trkpt>
      <trkpt lat="45.36435" lon="5.52551">
        <ele>435.5</ele>
        <time>2012-06-02T10:21:10.950Z</time>
      </trkpt>
      <trkpt lat="45.36431" lon="5.52548">
        <ele>439.5</ele>
        <time>2012-06-02T10:21:14.950Z</time>
      </trkpt>
      <trkpt lat="45.36425" lon="5.52531">
        <ele>439</ele>
        <time>2012-06-02T10:21:24.950Z</time>
      </trkpt>
      <trkpt lat="45.36411" lon="5.52505">
        <ele>446.5</ele>
        <time>2012-06-02T10:21:41.950Z</time>
      </trkpt>
      <trkpt lat="45.36406" lon="5.52477">
        <ele>449.5</ele>
        <time>2012-06-02T10:21:58.950Z</time>
      </trkpt>
      <trkpt lat="45.364" lon="5.52468">
        <ele>451</ele>
        <time>2012-06-02T10:22:05.950Z</time>
      </trkpt>
      <trkpt lat="45.36398" lon="5.52406">
        <ele>460</ele>
        <time>2012-06-02T10:22:41.950Z</time>
      </trkpt>
      <trkpt lat="45.36396" lon="5.52408">
        <ele>459</ele>
        <time>2012-06-02T10:22:44.950Z</time>
      </trkpt>
      <trkpt lat="45.36395" lon="5.52416">
        <ele>460</ele>
        <time>2012-06-02T10:22:54.950Z</time>
      </trkpt>
      <trkpt lat="45.36391" lon="5.52413">
        <ele>459.5</ele>
        <time>2012-06-02T10:23:02.950Z</time>
      </trkpt>
      <trkpt lat="45.36378" lon="5.52423">
        <ele>460.5</ele>
        <time>2012-06-02T10:23:21.950Z</time>
      </trkpt>
      <trkpt lat="45.36374" lon="5.52434">
        <ele>465</ele>
        <time>2012-06-02T10:23:32.950Z</time>
      </trkpt>
      <trkpt lat="45.36353" lon="5.52466">
        <ele>471</ele>
        <time>2012-06-02T10:23:58.970Z</time>
      </trkpt>
      <trkpt lat="45.36348" lon="5.52463">
        <ele>474.5</ele>
        <time>2012-06-02T10:24:05.970Z</time>
      </trkpt>
      <trkpt lat="45.36346" lon="5.52457">
        <ele>474.5</ele>
        <time>2012-06-02T10:24:12.970Z</time>
      </trkpt>
      <trkpt lat="45.36331" lon="5.52438">
        <ele>482.5</ele>
        <time>2012-06-02T10:24:33.970Z</time>
      </trkpt>
      <trkpt lat="45.36331" lon="5.52432">
        <ele>484.5</ele>
        <time>2012-06-02T10:24:37.970Z</time>
      </trkpt>
      <trkpt lat="45.36326" lon="5.5242">
        <ele>495.5</ele>
        <time>2012-06-02T10:24:48.970Z</time>
      </trkpt>
      <trkpt lat="45.36318" lon="5.52427">
        <ele>500</ele>
        <time>2012-06-02T10:25:02.970Z</time>
      </trkpt>
      <trkpt lat="45.36312" lon="5.52427">
        <ele>496</ele>
        <time>2012-06-02T10:25:07.970Z</time>
      </trkpt>
      <trkpt lat="45.36309" lon="5.5242">
        <ele>499</ele>
        <time>2012-06-02T10:25:17.970Z</time>
      </trkpt>
      <trkpt lat="45.36299" lon="5.52419">
        <ele>497</ele>
        <time>2012-06-02T10:25:27.970Z</time>
      </trkpt>
      <trkpt lat="45.36307" lon="5.52416">
        <ele>492</ele>
        <time>2012-06-02T10:25:44.970Z</time>
      </trkpt>
      <trkpt lat="45.36305" lon="5.52413">
        <ele>488.5</ele>
        <time>2012-06-02T10:26:33.970Z</time>
      </trkpt>
      <trkpt lat="45.36307" lon="5.5241">
        <ele>484</ele>
        <time>2012-06-02T10:26:50.970Z</time>
      </trkpt>
      <trkpt lat="45.36296" lon="5.524">
        <ele>487</ele>
        <time>2012-06-02T10:27:10.970Z</time>
      </trkpt>
      <trkpt lat="45.3628" lon="5.52401">
        <ele>487</ele>
        <time>2012-06-02T10:27:17.970Z</time>
      </trkpt>
      <trkpt lat="45.36273" lon="5.52397">
        <ele>487</ele>
        <time>2012-06-02T10:27:20.970Z</time>
      </trkpt>
      <trkpt lat="45.36271" lon="5.5239">
        <ele>486.5</ele>
        <time>2012-06-02T10:27:22.970Z</time>
      </trkpt>
      <trkpt lat="45.36273" lon="5.52363">
        <ele>484.5</ele>
        <time>2012-06-02T10:27:27.970Z</time>
      </trkpt>
      <trkpt lat="45.36271" lon="5.52317">
        <ele>487.5</ele>
        <time>2012-06-02T10:27:36.970Z</time>
      </trkpt>
      <trkpt lat="45.36267" lon="5.52314">
        <ele>489.5</ele>
        <time>2012-06-02T10:27:38.970Z</time>
      </trkpt>
      <trkpt lat="45.36245" lon="5.52347">
        <ele>494.5</ele>
        <time>2012-06-02T10:27:55.970Z</time>
      </trkpt>
      <trkpt lat="45.36218" lon="5.52376">
        <ele>490.5</ele>
        <time>2012-06-02T10:28:08.970Z</time>
      </trkpt>
      <trkpt lat="45.36156" lon="5.52455">
        <ele>477.5</ele>
        <time>2012-06-02T10:28:38.970Z</time>
      </trkpt>
      <trkpt lat="45.36149" lon="5.5246">
        <ele>476</ele>
        <time>2012-06-02T10:28:40.970Z</time>
      </trkpt>
      <trkpt lat="45.36133" lon="5.52461">
        <ele>474.5</ele>
        <time>2012-06-02T10:28:45.970Z</time>
      </trkpt>
      <trkpt lat="45.36122" lon="5.52466">
        <ele>473</ele>
        <time>2012-06-02T10:28:50.970Z</time>
      </trkpt>
      <trkpt lat="45.36115" lon="5.52475">
        <ele>472.5</ele>
        <time>2012-06-02T10:28:55.970Z</time>
      </trkpt>
      <trkpt lat="45.36114" lon="5.52485">
        <ele>475.5</ele>
        <time>2012-06-02T10:29:00.970Z</time>
      </trkpt>
      <trkpt lat="45.36118" lon="5.52503">
        <ele>482</ele>
        <time>2012-06-02T10:29:12.970Z</time>
      </trkpt>
      <trkpt lat="45.36111" lon="5.52551">
        <ele>485</ele>
        <time>2012-06-02T10:29:28.970Z</time>
      </trkpt>
      <trkpt lat="45.36116" lon="5.52605">
        <ele>493</ele>
        <time>2012-06-02T10:29:47.970Z</time>
      </trkpt>
      <trkpt lat="45.36124" lon="5.52646">
        <ele>497.5</ele>
        <time>2012-06-02T10:30:04.970Z</time>
      </trkpt>
      <trkpt lat="45.36123" lon="5.52678">
        <ele>504</ele>
        <time>2012-06-02T10:30:17.970Z</time>
      </trkpt>
      <trkpt lat="45.36116" lon="5.52696">
        <ele>511</ele>
        <time>2012-06-02T10:30:24.970Z</time>
      </trkpt>
      <trkpt lat="45.36116" lon="5.52742">
        <ele>493.5</ele>
        <time>2012-06-02T10:30:38.970Z</time>
      </trkpt>
      <trkpt lat="45.3612" lon="5.52751">
        <ele>482.5</ele>
        <time>2012-06-02T10:30:50.970Z</time>
      </trkpt>
      <trkpt lat="45.3613" lon="5.52753">
        <ele>481</ele>
        <time>2012-06-02T10:30:55.970Z</time>
      </trkpt>
      <trkpt lat="45.36127" lon="5.52756">
        <ele>478.5</ele>
        <time>2012-06-02T10:31:03.970Z</time>
      </trkpt>
      <trkpt lat="45.36133" lon="5.52763">
        <ele>476</ele>
        <time>2012-06-02T10:31:13.970Z</time>
      </trkpt>
      <trkpt lat="45.36132" lon="5.52765">
        <ele>475</ele>
        <time>2012-06-02T10:31:19.970Z</time>
      </trkpt>
      <trkpt lat="45.36139" lon="5.5277">
        <ele>473.5</ele>
        <time>2012-06-02T10:31:41.970Z</time>
      </trkpt>
      <trkpt lat="45.36132" lon="5.52772">
        <ele>473</ele>
        <time>2012-06-02T10:32:06.970Z</time>
      </trkpt>
      <trkpt lat="45.3611" lon="5.52758">
        <ele>477.5</ele>
        <time>2012-06-02T10:32:15.970Z</time>
      </trkpt>
      <trkpt lat="45.36034" lon="5.52698">
        <ele>475</ele>
        <time>2012-06-02T10:32:33.970Z</time>
      </trkpt>
      <trkpt lat="45.36016" lon="5.52678">
        <ele>480.5</ele>
        <time>2012-06-02T10:32:41.970Z</time>
      </trkpt>
      <trkpt lat="45.36011" lon="5.52665">
        <ele>481</ele>
        <time>2012-06-02T10:32:45.970Z</time>
      </trkpt>
      <trkpt lat="45.36006" lon="5.52599">
        <ele>483</ele>
        <time>2012-06-02T10:32:54.970Z</time>
      </trkpt>
      <trkpt lat="45.36008" lon="5.52592">
        <ele>482</ele>
        <time>2012-06-02T10:32:55.970Z</time>
      </trkpt>
      <trkpt lat="45.36006" lon="5.52579">
        <ele>480</ele>
        <time>2012-06-02T10:32:57.970Z</time>
      </trkpt>
      <trkpt lat="45.3601" lon="5.52525">
        <ele>471.5</ele>
        <time>2012-06-02T10:33:05.970Z</time>
      </trkpt>
      <trkpt lat="45.36018" lon="5.52493">
        <ele>466.5</ele>
        <time>2012-06-02T10:33:13.970Z</time>
      </trkpt>
      <trkpt lat="45.36015" lon="5.52472">
        <ele>467.5</ele>
        <time>2012-06-02T10:33:18.970Z</time>
      </trkpt>
      <trkpt lat="45.36017" lon="5.52457">
        <ele>464.5</ele>
        <time>2012-06-02T10:33:21.970Z</time>
      </trkpt>
      <trkpt lat="45.36014" lon="5.52419">
        <ele>453</ele>
        <time>2012-06-02T10:33:31.970Z</time>
      </trkpt>
      <trkpt lat="45.36011" lon="5.52413">
        <ele>451</ele>
        <time>2012-06-02T10:33:34.970Z</time>
      </trkpt>
      <trkpt lat="45.36016" lon="5.52377">
        <ele>456.5</ele>
        <time>2012-06-02T10:33:45.970Z</time>
      </trkpt>
      <trkpt lat="45.36016" lon="5.52364">
        <ele>459</ele>
        <time>2012-06-02T10:33:49.970Z</time>
      </trkpt>
      <trkpt lat="45.36029" lon="5.52309">
        <ele>454</ele>
        <time>2012-06-02T10:34:02.970Z</time>
      </trkpt>
      <trkpt lat="45.3603" lon="5.52286">
        <ele>459</ele>
        <time>2012-06-02T10:34:11.970Z</time>
      </trkpt>
      <trkpt lat="45.36034" lon="5.52279">
        <ele>454</ele>
        <time>2012-06-02T10:34:19.970Z</time>
      </trkpt>
      <trkpt lat="45.36031" lon="5.5228">
        <ele>455</ele>
        <time>2012-06-02T10:34:21.970Z</time>
      </trkpt>
      <trkpt lat="45.3603" lon="5.52287">
        <ele>450</ele>
        <time>2012-06-02T10:34:27.970Z</time>
      </trkpt>
      <trkpt lat="45.36027" lon="5.52286">
        <ele>451.5</ele>
        <time>2012-06-02T10:34:30.970Z</time>
      </trkpt>
      <trkpt lat="45.36027" lon="5.52281">
        <ele>452.5</ele>
        <time>2012-06-02T10:34:33.970Z</time>
      </trkpt>
      <trkpt lat="45.36044" lon="5.52247">
        <ele>446</ele>
        <time>2012-06-02T10:34:43.970Z</time>
      </trkpt>
      <trkpt lat="45.36044" lon="5.52241">
        <ele>442</ele>
        <time>2012-06-02T10:35:00.970Z</time>
      </trkpt>
      <trkpt lat="45.36049" lon="5.52229">
        <ele>437</ele>
        <time>2012-06-02T10:35:18.970Z</time>
      </trkpt>
      <trkpt lat="45.36044" lon="5.52224">
        <ele>434.5</ele>
        <time>2012-06-02T10:35:24.970Z</time>
      </trkpt>
      <trkpt lat="45.36049" lon="5.52212">
        <ele>431.5</ele>
        <time>2012-06-02T10:35:29.970Z</time>
      </trkpt>
      <trkpt lat="45.36048" lon="5.52209">
        <ele>429.5</ele>
        <time>2012-06-02T10:35:30.970Z</time>
      </trkpt>
      <trkpt lat="45.36037" lon="5.52211">
        <ele>431</ele>
        <time>2012-06-02T10:35:36.970Z</time>
      </trkpt>
      <trkpt lat="45.3603" lon="5.52198">
        <ele>431.5</ele>
        <time>2012-06-02T10:35:40.970Z</time>
      </trkpt>
      <trkpt lat="45.36031" lon="5.52188">
        <ele>432.5</ele>
        <time>2012-06-02T10:35:43.970Z</time>
      </trkpt>
      <trkpt lat="45.36049" lon="5.52171">
        <ele>429</ele>
        <time>2012-06-02T10:35:49.970Z</time>
      </trkpt>
      <trkpt lat="45.36061" lon="5.52153">
        <ele>428.5</ele>
        <time>2012-06-02T10:35:55.970Z</time>
      </trkpt>
      <trkpt lat="45.36068" lon="5.52135">
        <ele>430</ele>
        <time>2012-06-02T10:36:02.970Z</time>
      </trkpt>
      <trkpt lat="45.36093" lon="5.52098">
        <ele>421</ele>
        <time>2012-06-02T10:36:17.970Z</time>
      </trkpt>
      <trkpt lat="45.36097" lon="5.52078">
        <ele>422.5</ele>
        <time>2012-06-02T10:36:21.970Z</time>
      </trkpt>
      <trkpt lat="45.36091" lon="5.52008">
        <ele>417.5</ele>
        <time>2012-06-02T10:36:39.970Z</time>
      </trkpt>
      <trkpt lat="45.36076" lon="5.51938">
        <ele>422.5</ele>
        <time>2012-06-02T10:36:58.970Z</time>
      </trkpt>
      <trkpt lat="45.36073" lon="5.5191">
        <ele>421</ele>
        <time>2012-06-02T10:37:05.970Z</time>
      </trkpt>
      <trkpt lat="45.36072" lon="5.51867">
        <ele>422.5</ele>
        <time>2012-06-02T10:37:21.970Z</time>
      </trkpt>
      <trkpt lat="45.36065" lon="5.51867">
        <ele>426</ele>
        <time>2012-06-02T10:37:25.970Z</time>
      </trkpt>
      <trkpt lat="45.36051" lon="5.51858">
        <ele>426</ele>
        <time>2012-06-02T10:37:31.970Z</time>
      </trkpt>
      <trkpt lat="45.35955" lon="5.51836">
        <ele>426</ele>
        <time>2012-06-02T10:38:01.970Z</time>
      </trkpt>
      <trkpt lat="45.35922" lon="5.51821">
        <ele>424.5</ele>
        <time>2012-06-02T10:38:11.970Z</time>
      </trkpt>
      <trkpt lat="45.35908" lon="5.51818">
        <ele>427.5</ele>
        <time>2012-06-02T10:38:15.970Z</time>
      </trkpt>
      <trkpt lat="45.35896" lon="5.51807">
        <ele>427.5</ele>
        <time>2012-06-02T10:38:25.970Z</time>
      </trkpt>
      <trkpt lat="45.35852" lon="5.51791">
        <ele>426</ele>
        <time>2012-06-02T10:38:32.580Z</time>
      </trkpt>
      <trkpt lat="45.35848" lon="5.51784">
        <ele>425</ele>
        <time>2012-06-02T10:38:34.970Z</time>
      </trkpt>
      <trkpt lat="45.35861" lon="5.51769">
        <ele>422</ele>
        <time>2012-06-02T10:38:40.970Z</time>
      </trkpt>
      <trkpt lat="45.35859" lon="5.51766">
        <ele>417</ele>
        <time>2012-06-02T10:38:42.970Z</time>
      </trkpt>
      <trkpt lat="45.3588" lon="5.51734">
        <ele>410.5</ele>
        <time>2012-06-02T10:38:56.970Z</time>
      </trkpt>
      <trkpt lat="45.3592" lon="5.51684">
        <ele>408.5</ele>
        <time>2012-06-02T10:39:21.970Z</time>
      </trkpt>
      <trkpt lat="45.35955" lon="5.51656">
        <ele>417</ele>
        <time>2012-06-02T10:39:47.290Z</time>
      </trkpt>
      <trkpt lat="45.35999" lon="5.51593">
        <ele>416.5</ele>
        <time>2012-06-02T10:40:21.390Z</time>
      </trkpt>
      <trkpt lat="45.36022" lon="5.51566">
        <ele>422</ele>
        <time>2012-06-02T10:40:43.390Z</time>
      </trkpt>
      <trkpt lat="45.3604" lon="5.51534">
        <ele>420.5</ele>
        <time>2012-06-02T10:41:01.390Z</time>
      </trkpt>
      <trkpt lat="45.36074" lon="5.51488">
        <ele>435.5</ele>
        <time>2012-06-02T10:41:41.390Z</time>
      </trkpt>
      <trkpt lat="45.36076" lon="5.51488">
        <ele>435.5</ele>
        <time>2012-06-02T10:43:02.390Z</time>
      </trkpt>
      <trkpt lat="45.36182" lon="5.51362">
        <ele>444.5</ele>
        <time>2012-06-02T10:44:26.390Z</time>
      </trkpt>
      <trkpt lat="45.36195" lon="5.51337">
        <ele>447</ele>
        <time>2012-06-02T10:44:37.390Z</time>
      </trkpt>
      <trkpt lat="45.36207" lon="5.51322">
        <ele>449</ele>
        <time>2012-06-02T10:44:45.390Z</time>
      </trkpt>
      <trkpt lat="45.36208" lon="5.51313">
        <ele>449</ele>
        <time>2012-06-02T10:44:48.390Z</time>
      </trkpt>
      <trkpt lat="45.36199" lon="5.51307">
        <ele>449.5</ele>
        <time>2012-06-02T10:44:53.390Z</time>
      </trkpt>
      <trkpt lat="45.36173" lon="5.51316">
        <ele>467</ele>
        <time>2012-06-02T10:45:11.390Z</time>
      </trkpt>
      <trkpt lat="45.3615" lon="5.51316">
        <ele>472</ele>
        <time>2012-06-02T10:45:24.730Z</time>
      </trkpt>
      <trkpt lat="45.36125" lon="5.51301">
        <ele>466</ele>
        <time>2012-06-02T10:45:36.530Z</time>
      </trkpt>
      <trkpt lat="45.361" lon="5.51275">
        <ele>461</ele>
        <time>2012-06-02T10:45:47.560Z</time>
      </trkpt>
      <trkpt lat="45.36096" lon="5.51265">
        <ele>460</ele>
        <time>2012-06-02T10:45:50.540Z</time>
      </trkpt>
      <trkpt lat="45.36115" lon="5.51191">
        <ele>456</ele>
        <time>2012-06-02T10:46:11.540Z</time>
      </trkpt>
      <trkpt lat="45.36177" lon="5.51031">
        <ele>456.5</ele>
        <time>2012-06-02T10:46:47.530Z</time>
      </trkpt>
      <trkpt lat="45.36209" lon="5.50979">
        <ele>456.5</ele>
        <time>2012-06-02T10:47:00.530Z</time>
      </trkpt>
      <trkpt lat="45.36231" lon="5.50952">
        <ele>457</ele>
        <time>2012-06-02T10:47:08.530Z</time>
      </trkpt>
      <trkpt lat="45.36268" lon="5.50918">
        <ele>458.5</ele>
        <time>2012-06-02T10:47:20.530Z</time>
      </trkpt>
      <trkpt lat="45.36302" lon="5.50871">
        <ele>458</ele>
        <time>2012-06-02T10:47:33.530Z</time>
      </trkpt>
      <trkpt lat="45.36349" lon="5.50836">
        <ele>458.5</ele>
        <time>2012-06-02T10:47:48.530Z</time>
      </trkpt>
      <trkpt lat="45.36393" lon="5.50794">
        <ele>459.5</ele>
        <time>2012-06-02T10:48:03.530Z</time>
      </trkpt>
      <trkpt lat="45.36436" lon="5.50744">
        <ele>465</ele>
        <time>2012-06-02T10:48:20.520Z</time>
      </trkpt>
      <trkpt lat="45.36483" lon="5.50682">
        <ele>463</ele>
        <time>2012-06-02T10:48:37.520Z</time>
      </trkpt>
      <trkpt lat="45.36567" lon="5.50595">
        <ele>459</ele>
        <time>2012-06-02T10:49:05.520Z</time>
      </trkpt>
      <trkpt lat="45.3658" lon="5.50575">
        <ele>458.5</ele>
        <time>2012-06-02T10:49:11.520Z</time>
      </trkpt>
      <trkpt lat="45.36682" lon="5.50306">
        <ele>458</ele>
        <time>2012-06-02T10:50:06.510Z</time>
      </trkpt>
      <trkpt lat="45.36737" lon="5.50203">
        <ele>459</ele>
        <time>2012-06-02T10:50:32.510Z</time>
      </trkpt>
      <trkpt lat="45.36763" lon="5.50148">
        <ele>454.5</ele>
        <time>2012-06-02T10:50:41.510Z</time>
      </trkpt>
      <trkpt lat="45.36767" lon="5.50131">
        <ele>453.5</ele>
        <time>2012-06-02T10:50:43.510Z</time>
      </trkpt>
      <trkpt lat="45.36767" lon="5.50111">
        <ele>452.5</ele>
        <time>2012-06-02T10:50:46.510Z</time>
      </trkpt>
      <trkpt lat="45.36771" lon="5.50101">
        <ele>451.5</ele>
        <time>2012-06-02T10:50:49.510Z</time>
      </trkpt>
      <trkpt lat="45.36777" lon="5.50105">
        <ele>452.5</ele>
        <time>2012-06-02T10:50:51.510Z</time>
      </trkpt>
      <trkpt lat="45.36783" lon="5.50125">
        <ele>451.5</ele>
        <time>2012-06-02T10:50:55.500Z</time>
      </trkpt>
      <trkpt lat="45.36786" lon="5.50155">
        <ele>451.5</ele>
        <time>2012-06-02T10:51:03.490Z</time>
      </trkpt>
      <trkpt lat="45.36799" lon="5.50167">
        <ele>451</ele>
        <time>2012-06-02T10:51:08.510Z</time>
      </trkpt>
      <trkpt lat="45.36794" lon="5.50223">
        <ele>451.5</ele>
        <time>2012-06-02T10:51:12.510Z</time>
      </trkpt>
      <trkpt lat="45.36774" lon="5.50297">
        <ele>457.5</ele>
        <time>2012-06-02T10:51:28.510Z</time>
      </trkpt>
      <trkpt lat="45.36774" lon="5.50308">
        <ele>459.5</ele>
        <time>2012-06-02T10:51:31.510Z</time>
      </trkpt>
      <trkpt lat="45.36778" lon="5.50312">
        <ele>460</ele>
        <time>2012-06-02T10:51:33.500Z</time>
      </trkpt>
      <trkpt lat="45.36784" lon="5.50312">
        <ele>460</ele>
        <time>2012-06-02T10:51:35.500Z</time>
      </trkpt>
      <trkpt lat="45.36799" lon="5.50302">
        <ele>459.5</ele>
        <time>2012-06-02T10:51:40.500Z</time>
      </trkpt>
      <trkpt lat="45.36809" lon="5.50283">
        <ele>458.5</ele>
        <time>2012-06-02T10:51:46.500Z</time>
      </trkpt>
      <trkpt lat="45.36817" lon="5.50253">
        <ele>458.5</ele>
        <time>2012-06-02T10:51:54.500Z</time>
      </trkpt>
      <trkpt lat="45.36819" lon="5.50222">
        <ele>458.5</ele>
        <time>2012-06-02T10:52:02.510Z</time>
      </trkpt>
      <trkpt lat="45.36815" lon="5.50184">
        <ele>462.5</ele>
        <time>2012-06-02T10:52:13.510Z</time>
      </trkpt>
      <trkpt lat="45.36818" lon="5.50166">
        <ele>463</ele>
        <time>2012-06-02T10:52:18.500Z</time>
      </trkpt>
      <trkpt lat="45.36823" lon="5.50157">
        <ele>463.5</ele>
        <time>2012-06-02T10:52:21.500Z</time>
      </trkpt>
      <trkpt lat="45.36853" lon="5.50132">
        <ele>463</ele>
        <time>2012-06-02T10:52:33.500Z</time>
      </trkpt>
      <trkpt lat="45.36902" lon="5.50102">
        <ele>467.5</ele>
        <time>2012-06-02T10:52:54.500Z</time>
      </trkpt>
      <trkpt lat="45.3696" lon="5.50059">
        <ele>471.5</ele>
        <time>2012-06-02T10:53:21.500Z</time>
      </trkpt>
      <trkpt lat="45.36989" lon="5.50023">
        <ele>473.5</ele>
        <time>2012-06-02T10:53:38.500Z</time>
      </trkpt>
      <trkpt lat="45.37003" lon="5.50017">
        <ele>474.5</ele>
        <time>2012-06-02T10:53:59.500Z</time>
      </trkpt>
      <trkpt lat="45.37003" lon="5.50014">
        <ele>475.5</ele>
        <time>2012-06-02T10:54:54.500Z</time>
      </trkpt>
      <trkpt lat="45.37031" lon="5.5">
        <ele>481</ele>
        <time>2012-06-02T10:55:18.500Z</time>
      </trkpt>
      <trkpt lat="45.37042" lon="5.50014">
        <ele>489</ele>
        <time>2012-06-02T10:55:29.490Z</time>
      </trkpt>
      <trkpt lat="45.37054" lon="5.50039">
        <ele>512.5</ele>
        <time>2012-06-02T10:55:54.490Z</time>
      </trkpt>
      <trkpt lat="45.37064" lon="5.50053">
        <ele>517.5</ele>
        <time>2012-06-02T10:56:06.490Z</time>
      </trkpt>
      <trkpt lat="45.37073" lon="5.50057">
        <ele>527</ele>
        <time>2012-06-02T10:56:19.490Z</time>
      </trkpt>
      <trkpt lat="45.3711" lon="5.5009">
        <ele>525</ele>
        <time>2012-06-02T10:56:43.490Z</time>
      </trkpt>
      <trkpt lat="45.3712" lon="5.50107">
        <ele>528.5</ele>
        <time>2012-06-02T10:56:54.480Z</time>
      </trkpt>
      <trkpt lat="45.37122" lon="5.50124">
        <ele>533.5</ele>
        <time>2012-06-02T10:57:04.490Z</time>
      </trkpt>
      <trkpt lat="45.37143" lon="5.50154">
        <ele>537.5</ele>
        <time>2012-06-02T10:57:16.490Z</time>
      </trkpt>
      <trkpt lat="45.37166" lon="5.50167">
        <ele>532</ele>
        <time>2012-06-02T10:57:26.480Z</time>
      </trkpt>
      <trkpt lat="45.37192" lon="5.50206">
        <ele>543</ele>
        <time>2012-06-02T10:57:46.480Z</time>
      </trkpt>
      <trkpt lat="45.37216" lon="5.50227">
        <ele>530.5</ele>
        <time>2012-06-02T10:57:57.480Z</time>
      </trkpt>
      <trkpt lat="45.37283" lon="5.50269">
        <ele>536</ele>
        <time>2012-06-02T10:58:21.480Z</time>
      </trkpt>
      <trkpt lat="45.37315" lon="5.50298">
        <ele>535</ele>
        <time>2012-06-02T10:58:33.480Z</time>
      </trkpt>
      <trkpt lat="45.37367" lon="5.50377">
        <ele>534</ele>
        <time>2012-06-02T10:59:01.470Z</time>
      </trkpt>
      <trkpt lat="45.37381" lon="5.50419">
        <ele>540.5</ele>
        <time>2012-06-02T10:59:19.470Z</time>
      </trkpt>
      <trkpt lat="45.37398" lon="5.5052">
        <ele>547.5</ele>
        <time>2012-06-02T10:59:49.480Z</time>
      </trkpt>
      <trkpt lat="45.37397" lon="5.50523">
        <ele>548</ele>
        <time>2012-06-02T10:59:50.480Z</time>
      </trkpt>
      <trkpt lat="45.37408" lon="5.50558">
        <ele>564.5</ele>
        <time>2012-06-02T11:00:04.470Z</time>
      </trkpt>
      <trkpt lat="45.37417" lon="5.50573">
        <ele>569</ele>
        <time>2012-06-02T11:00:10.480Z</time>
      </trkpt>
      <trkpt lat="45.37426" lon="5.50597">
        <ele>569</ele>
        <time>2012-06-02T11:00:19.470Z</time>
      </trkpt>
      <trkpt lat="45.37446" lon="5.50623">
        <ele>558</ele>
        <time>2012-06-02T11:00:27.470Z</time>
      </trkpt>
      <trkpt lat="45.37469" lon="5.50667">
        <ele>564.5</ele>
        <time>2012-06-02T11:00:45.470Z</time>
      </trkpt>
      <trkpt lat="45.3748" lon="5.50676">
        <ele>569</ele>
        <time>2012-06-02T11:00:52.470Z</time>
      </trkpt>
      <trkpt lat="45.37499" lon="5.50675">
        <ele>558</ele>
        <time>2012-06-02T11:00:58.460Z</time>
      </trkpt>
      <trkpt lat="45.37513" lon="5.50671">
        <ele>556</ele>
        <time>2012-06-02T11:01:04.460Z</time>
      </trkpt>
      <trkpt lat="45.37535" lon="5.50682">
        <ele>550.5</ele>
        <time>2012-06-02T11:01:17.460Z</time>
      </trkpt>
      <trkpt lat="45.37539" lon="5.50693">
        <ele>555.5</ele>
        <time>2012-06-02T11:01:24.470Z</time>
      </trkpt>
      <trkpt lat="45.37565" lon="5.50718">
        <ele>562</ele>
        <time>2012-06-02T11:01:40.460Z</time>
      </trkpt>
      <trkpt lat="45.37591" lon="5.50734">
        <ele>569</ele>
        <time>2012-06-02T11:01:53.470Z</time>
      </trkpt>
      <trkpt lat="45.37603" lon="5.50745">
        <ele>575.5</ele>
        <time>2012-06-02T11:02:02.460Z</time>
      </trkpt>
      <trkpt lat="45.37642" lon="5.50797">
        <ele>593</ele>
        <time>2012-06-02T11:02:21.460Z</time>
      </trkpt>
      <trkpt lat="45.3766" lon="5.50806">
        <ele>592.5</ele>
        <time>2012-06-02T11:02:30.450Z</time>
      </trkpt>
      <trkpt lat="45.37691" lon="5.50812">
        <ele>592.5</ele>
        <time>2012-06-02T11:02:49.460Z</time>
      </trkpt>
      <trkpt lat="45.37702" lon="5.50809">
        <ele>597</ele>
        <time>2012-06-02T11:02:55.450Z</time>
      </trkpt>
      <trkpt lat="45.37713" lon="5.50815">
        <ele>598.5</ele>
        <time>2012-06-02T11:02:59.450Z</time>
      </trkpt>
      <trkpt lat="45.37716" lon="5.50829">
        <ele>596.5</ele>
        <time>2012-06-02T11:03:03.460Z</time>
      </trkpt>
      <trkpt lat="45.37739" lon="5.50868">
        <ele>573</ele>
        <time>2012-06-02T11:03:09.450Z</time>
      </trkpt>
      <trkpt lat="45.37751" lon="5.50895">
        <ele>560.5</ele>
        <time>2012-06-02T11:03:14.450Z</time>
      </trkpt>
      <trkpt lat="45.37754" lon="5.5093">
        <ele>561.5</ele>
        <time>2012-06-02T11:03:22.450Z</time>
      </trkpt>
      <trkpt lat="45.37757" lon="5.5094">
        <ele>558</ele>
        <time>2012-06-02T11:03:24.450Z</time>
      </trkpt>
      <trkpt lat="45.37756" lon="5.50979">
        <ele>557.5</ele>
        <time>2012-06-02T11:03:33.450Z</time>
      </trkpt>
      <trkpt lat="45.37769" lon="5.51032">
        <ele>550.5</ele>
        <time>2012-06-02T11:03:43.450Z</time>
      </trkpt>
      <trkpt lat="45.37772" lon="5.51077">
        <ele>548.5</ele>
        <time>2012-06-02T11:03:53.450Z</time>
      </trkpt>
      <trkpt lat="45.37781" lon="5.51128">
        <ele>547</ele>
        <time>2012-06-02T11:04:03.450Z</time>
      </trkpt>
      <trkpt lat="45.37795" lon="5.51171">
        <ele>544</ele>
        <time>2012-06-02T11:04:10.450Z</time>
      </trkpt>
      <trkpt lat="45.37821" lon="5.51209">
        <ele>542.5</ele>
        <time>2012-06-02T11:04:17.450Z</time>
      </trkpt>
      <trkpt lat="45.37889" lon="5.5129">
        <ele>535</ele>
        <time>2012-06-02T11:04:37.440Z</time>
      </trkpt>
      <trkpt lat="45.37902" lon="5.51309">
        <ele>534</ele>
        <time>2012-06-02T11:04:44.440Z</time>
      </trkpt>
      <trkpt lat="45.37956" lon="5.51357">
        <ele>528.5</ele>
        <time>2012-06-02T11:05:03.440Z</time>
      </trkpt>
      <trkpt lat="45.38001" lon="5.51391">
        <ele>526</ele>
        <time>2012-06-02T11:05:17.440Z</time>
      </trkpt>
      <trkpt lat="45.38018" lon="5.51411">
        <ele>525.5</ele>
        <time>2012-06-02T11:05:23.440Z</time>
      </trkpt>
      <trkpt lat="45.38052" lon="5.51464">
        <ele>521.5</ele>
        <time>2012-06-02T11:05:38.440Z</time>
      </trkpt>
      <trkpt lat="45.38094" lon="5.51522">
        <ele>519.5</ele>
        <time>2012-06-02T11:05:54.450Z</time>
      </trkpt>
      <trkpt lat="45.38205" lon="5.51692">
        <ele>518</ele>
        <time>2012-06-02T11:06:38.430Z</time>
      </trkpt>
      <trkpt lat="45.38213" lon="5.51709">
        <ele>519.5</ele>
        <time>2012-06-02T11:06:44.450Z</time>
      </trkpt>
      <trkpt lat="45.38211" lon="5.51708">
        <ele>520</ele>
        <time>2012-06-02T11:06:45.440Z</time>
      </trkpt>
      <trkpt lat="45.38213" lon="5.5171">
        <ele>519.5</ele>
        <time>2012-06-02T11:07:16.430Z</time>
      </trkpt>
      <trkpt lat="45.38212" lon="5.51709">
        <ele>522</ele>
        <time>2012-06-02T11:07:31.430Z</time>
      </trkpt>
      <trkpt lat="45.38211" lon="5.5172">
        <ele>523</ele>
        <time>2012-06-02T11:07:39.450Z</time>
      </trkpt>
      <trkpt lat="45.38197" lon="5.51746">
        <ele>524.5</ele>
        <time>2012-06-02T11:07:49.420Z</time>
      </trkpt>
      <trkpt lat="45.38196" lon="5.51751">
        <ele>524.5</ele>
        <time>2012-06-02T11:07:51.430Z</time>
      </trkpt>
      <trkpt lat="45.38189" lon="5.51762">
        <ele>527</ele>
        <time>2012-06-02T11:07:55.430Z</time>
      </trkpt>
      <trkpt lat="45.38167" lon="5.51778">
        <ele>529</ele>
        <time>2012-06-02T11:08:04.430Z</time>
      </trkpt>
      <trkpt lat="45.38117" lon="5.51792">
        <ele>535</ele>
        <time>2012-06-02T11:08:22.420Z</time>
      </trkpt>
      <trkpt lat="45.38112" lon="5.51805">
        <ele>539</ele>
        <time>2012-06-02T11:08:31.430Z</time>
      </trkpt>
      <trkpt lat="45.38114" lon="5.51814">
        <ele>544</ele>
        <time>2012-06-02T11:08:41.430Z</time>
      </trkpt>
      <trkpt lat="45.38113" lon="5.51822">
        <ele>548.5</ele>
        <time>2012-06-02T11:08:56.430Z</time>
      </trkpt>
      <trkpt lat="45.38114" lon="5.51819">
        <ele>548.5</ele>
        <time>2012-06-02T11:09:08.420Z</time>
      </trkpt>
      <trkpt lat="45.38113" lon="5.5182">
        <ele>549.5</ele>
        <time>2012-06-02T11:09:17.420Z</time>
      </trkpt>
      <trkpt lat="45.38116" lon="5.51822">
        <ele>554.5</ele>
        <time>2012-06-02T11:09:43.410Z</time>
      </trkpt>
      <trkpt lat="45.38117" lon="5.51829">
        <ele>554.5</ele>
        <time>2012-06-02T11:10:07.420Z</time>
      </trkpt>
      <trkpt lat="45.38128" lon="5.51833">
        <ele>560.5</ele>
        <time>2012-06-02T11:10:20.420Z</time>
      </trkpt>
      <trkpt lat="45.38119" lon="5.51833">
        <ele>554.5</ele>
        <time>2012-06-02T11:10:41.410Z</time>
      </trkpt>
      <trkpt lat="45.38112" lon="5.51826">
        <ele>553</ele>
        <time>2012-06-02T11:11:34.440Z</time>
      </trkpt>
      <trkpt lat="45.38109" lon="5.51849">
        <ele>562.5</ele>
        <time>2012-06-02T11:11:52.400Z</time>
      </trkpt>
      <trkpt lat="45.3811" lon="5.51864">
        <ele>568.5</ele>
        <time>2012-06-02T11:12:02.400Z</time>
      </trkpt>
      <trkpt lat="45.38118" lon="5.51894">
        <ele>570</ele>
        <time>2012-06-02T11:12:14.400Z</time>
      </trkpt>
      <trkpt lat="45.38117" lon="5.51907">
        <ele>574</ele>
        <time>2012-06-02T11:12:19.410Z</time>
      </trkpt>
      <trkpt lat="45.38126" lon="5.51938">
        <ele>574.5</ele>
        <time>2012-06-02T11:12:25.400Z</time>
      </trkpt>
      <trkpt lat="45.38129" lon="5.51967">
        <ele>570.5</ele>
        <time>2012-06-02T11:12:30.400Z</time>
      </trkpt>
      <trkpt lat="45.38138" lon="5.52005">
        <ele>568</ele>
        <time>2012-06-02T11:12:37.400Z</time>
      </trkpt>
      <trkpt lat="45.38158" lon="5.52048">
        <ele>567.5</ele>
        <time>2012-06-02T11:12:46.410Z</time>
      </trkpt>
      <trkpt lat="45.38187" lon="5.52103">
        <ele>570</ele>
        <time>2012-06-02T11:12:58.410Z</time>
      </trkpt>
      <trkpt lat="45.38194" lon="5.52125">
        <ele>570</ele>
        <time>2012-06-02T11:13:02.410Z</time>
      </trkpt>
      <trkpt lat="45.38219" lon="5.52173">
        <ele>573.5</ele>
        <time>2012-06-02T11:13:12.400Z</time>
      </trkpt>
      <trkpt lat="45.38235" lon="5.52213">
        <ele>571</ele>
        <time>2012-06-02T11:13:18.410Z</time>
      </trkpt>
      <trkpt lat="45.38306" lon="5.52331">
        <ele>568.5</ele>
        <time>2012-06-02T11:13:45.400Z</time>
      </trkpt>
      <trkpt lat="45.38318" lon="5.52346">
        <ele>570.5</ele>
        <time>2012-06-02T11:13:50.400Z</time>
      </trkpt>
      <trkpt lat="45.38335" lon="5.52376">
        <ele>574.5</ele>
        <time>2012-06-02T11:13:58.400Z</time>
      </trkpt>
      <trkpt lat="45.38345" lon="5.52406">
        <ele>572</ele>
        <time>2012-06-02T11:14:04.400Z</time>
      </trkpt>
      <trkpt lat="45.38361" lon="5.52433">
        <ele>569</ele>
        <time>2012-06-02T11:14:10.400Z</time>
      </trkpt>
      <trkpt lat="45.38381" lon="5.52456">
        <ele>572</ele>
        <time>2012-06-02T11:14:17.400Z</time>
      </trkpt>
      <trkpt lat="45.38439" lon="5.5254">
        <ele>569.5</ele>
        <time>2012-06-02T11:14:37.390Z</time>
      </trkpt>
      <trkpt lat="45.3844" lon="5.52553">
        <ele>569.5</ele>
        <time>2012-06-02T11:14:40.400Z</time>
      </trkpt>
      <trkpt lat="45.38461" lon="5.52578">
        <ele>555.5</ele>
        <time>2012-06-02T11:14:57.400Z</time>
      </trkpt>
      <trkpt lat="45.38464" lon="5.5259">
        <ele>550</ele>
        <time>2012-06-02T11:15:17.450Z</time>
      </trkpt>
      <trkpt lat="45.38465" lon="5.52588">
        <ele>543</ele>
        <time>2012-06-02T11:15:20.400Z</time>
      </trkpt>
      <trkpt lat="45.38469" lon="5.52593">
        <ele>549.5</ele>
        <time>2012-06-02T11:15:24.400Z</time>
      </trkpt>
      <trkpt lat="45.38475" lon="5.52595">
        <ele>553.5</ele>
        <time>2012-06-02T11:15:27.390Z</time>
      </trkpt>
      <trkpt lat="45.38503" lon="5.52591">
        <ele>553.5</ele>
        <time>2012-06-02T11:15:36.390Z</time>
      </trkpt>
      <trkpt lat="45.38566" lon="5.52574">
        <ele>547</ele>
        <time>2012-06-02T11:15:52.390Z</time>
      </trkpt>
      <trkpt lat="45.38592" lon="5.52586">
        <ele>544.5</ele>
        <time>2012-06-02T11:15:58.390Z</time>
      </trkpt>
      <trkpt lat="45.38634" lon="5.52619">
        <ele>538.5</ele>
        <time>2012-06-02T11:16:14.380Z</time>
      </trkpt>
      <trkpt lat="45.38639" lon="5.52615">
        <ele>536.5</ele>
        <time>2012-06-02T11:16:31.380Z</time>
      </trkpt>
      <trkpt lat="45.38642" lon="5.52603">
        <ele>534.5</ele>
        <time>2012-06-02T11:16:35.380Z</time>
      </trkpt>
      <trkpt lat="45.38642" lon="5.52585">
        <ele>533</ele>
        <time>2012-06-02T11:16:39.400Z</time>
      </trkpt>
      <trkpt lat="45.38648" lon="5.52571">
        <ele>532</ele>
        <time>2012-06-02T11:16:42.380Z</time>
      </trkpt>
      <trkpt lat="45.38655" lon="5.52566">
        <ele>532</ele>
        <time>2012-06-02T11:16:44.380Z</time>
      </trkpt>
      <trkpt lat="45.38746" lon="5.52583">
        <ele>534.5</ele>
        <time>2012-06-02T11:17:11.380Z</time>
      </trkpt>
      <trkpt lat="45.38784" lon="5.52594">
        <ele>532</ele>
        <time>2012-06-02T11:17:21.380Z</time>
      </trkpt>
      <trkpt lat="45.38839" lon="5.52622">
        <ele>530</ele>
        <time>2012-06-02T11:17:36.380Z</time>
      </trkpt>
      <trkpt lat="45.38875" lon="5.52633">
        <ele>531</ele>
        <time>2012-06-02T11:17:47.380Z</time>
      </trkpt>
      <trkpt lat="45.38923" lon="5.52605">
        <ele>544.5</ele>
        <time>2012-06-02T11:18:14.370Z</time>
      </trkpt>
      <trkpt lat="45.38956" lon="5.52599">
        <ele>549.5</ele>
        <time>2012-06-02T11:18:30.370Z</time>
      </trkpt>
      <trkpt lat="45.38987" lon="5.52599">
        <ele>555.5</ele>
        <time>2012-06-02T11:18:45.370Z</time>
      </trkpt>
      <trkpt lat="45.38992" lon="5.52603">
        <ele>554.5</ele>
        <time>2012-06-02T11:18:47.370Z</time>
      </trkpt>
      <trkpt lat="45.39009" lon="5.52646">
        <ele>550</ele>
        <time>2012-06-02T11:18:59.370Z</time>
      </trkpt>
      <trkpt lat="45.39016" lon="5.52686">
        <ele>552</ele>
        <time>2012-06-02T11:19:09.360Z</time>
      </trkpt>
      <trkpt lat="45.39048" lon="5.52775">
        <ele>553</ele>
        <time>2012-06-02T11:19:34.360Z</time>
      </trkpt>
      <trkpt lat="45.39049" lon="5.52785">
        <ele>554</ele>
        <time>2012-06-02T11:19:37.360Z</time>
      </trkpt>
      <trkpt lat="45.39062" lon="5.52812">
        <ele>556.5</ele>
        <time>2012-06-02T11:19:46.360Z</time>
      </trkpt>
      <trkpt lat="45.3906" lon="5.52812">
        <ele>558</ele>
        <time>2012-06-02T11:19:47.360Z</time>
      </trkpt>
      <trkpt lat="45.39081" lon="5.52854">
        <ele>558</ele>
        <time>2012-06-02T11:19:56.530Z</time>
      </trkpt>
      <trkpt lat="45.39136" lon="5.52917">
        <ele>561</ele>
        <time>2012-06-02T11:20:09.370Z</time>
      </trkpt>
      <trkpt lat="45.39158" lon="5.52931">
        <ele>563</ele>
        <time>2012-06-02T11:20:24.350Z</time>
      </trkpt>
      <trkpt lat="45.39159" lon="5.52926">
        <ele>563.5</ele>
        <time>2012-06-02T11:20:26.350Z</time>
      </trkpt>
      <trkpt lat="45.39211" lon="5.5293">
        <ele>565.5</ele>
        <time>2012-06-02T11:20:38.360Z</time>
      </trkpt>
      <trkpt lat="45.39215" lon="5.52934">
        <ele>565</ele>
        <time>2012-06-02T11:20:39.360Z</time>
      </trkpt>
      <trkpt lat="45.39263" lon="5.52931">
        <ele>563.5</ele>
        <time>2012-06-02T11:20:52.360Z</time>
      </trkpt>
      <trkpt lat="45.39287" lon="5.52936">
        <ele>559.5</ele>
        <time>2012-06-02T11:20:58.360Z</time>
      </trkpt>
      <trkpt lat="45.39329" lon="5.52965">
        <ele>554.5</ele>
        <time>2012-06-02T11:21:10.360Z</time>
      </trkpt>
      <trkpt lat="45.39387" lon="5.52987">
        <ele>551.5</ele>
        <time>2012-06-02T11:21:21.360Z</time>
      </trkpt>
      <trkpt lat="45.39412" lon="5.52991">
        <ele>554.5</ele>
        <time>2012-06-02T11:21:28.350Z</time>
      </trkpt>
      <trkpt lat="45.39443" lon="5.53007">
        <ele>555.5</ele>
        <time>2012-06-02T11:21:38.350Z</time>
      </trkpt>
      <trkpt lat="45.39503" lon="5.53065">
        <ele>550.5</ele>
        <time>2012-06-02T11:21:53.350Z</time>
      </trkpt>
      <trkpt lat="45.39533" lon="5.53091">
        <ele>549</ele>
        <time>2012-06-02T11:22:05.340Z</time>
      </trkpt>
      <trkpt lat="45.39539" lon="5.53093">
        <ele>553.5</ele>
        <time>2012-06-02T11:22:09.350Z</time>
      </trkpt>
      <trkpt lat="45.39541" lon="5.53098">
        <ele>552.5</ele>
        <time>2012-06-02T11:22:11.350Z</time>
      </trkpt>
      <trkpt lat="45.3955" lon="5.53102">
        <ele>557</ele>
        <time>2012-06-02T11:22:14.350Z</time>
      </trkpt>
      <trkpt lat="45.39566" lon="5.53125">
        <ele>560.5</ele>
        <time>2012-06-02T11:22:20.350Z</time>
      </trkpt>
      <trkpt lat="45.39572" lon="5.53144">
        <ele>559</ele>
        <time>2012-06-02T11:22:26.350Z</time>
      </trkpt>
      <trkpt lat="45.39589" lon="5.5318">
        <ele>557.5</ele>
        <time>2012-06-02T11:22:32.340Z</time>
      </trkpt>
      <trkpt lat="45.39587" lon="5.53194">
        <ele>555.5</ele>
        <time>2012-06-02T11:22:36.350Z</time>
      </trkpt>
      <trkpt lat="45.39603" lon="5.53218">
        <ele>556</ele>
        <time>2012-06-02T11:22:47.340Z</time>
      </trkpt>
      <trkpt lat="45.396" lon="5.53226">
        <ele>554.5</ele>
        <time>2012-06-02T11:22:50.340Z</time>
      </trkpt>
      <trkpt lat="45.39611" lon="5.53245">
        <ele>558</ele>
        <time>2012-06-02T11:22:57.340Z</time>
      </trkpt>
      <trkpt lat="45.39625" lon="5.53263">
        <ele>560</ele>
        <time>2012-06-02T11:23:04.330Z</time>
      </trkpt>
      <trkpt lat="45.39621" lon="5.53277">
        <ele>559.5</ele>
        <time>2012-06-02T11:23:09.330Z</time>
      </trkpt>
      <trkpt lat="45.39628" lon="5.53296">
        <ele>560</ele>
        <time>2012-06-02T11:23:20.340Z</time>
      </trkpt>
      <trkpt lat="45.39627" lon="5.53309">
        <ele>548</ele>
        <time>2012-06-02T11:23:32.330Z</time>
      </trkpt>
      <trkpt lat="45.39629" lon="5.53313">
        <ele>547.5</ele>
        <time>2012-06-02T11:23:35.330Z</time>
      </trkpt>
      <trkpt lat="45.39637" lon="5.53313">
        <ele>547.5</ele>
        <time>2012-06-02T11:23:39.330Z</time>
      </trkpt>
      <trkpt lat="45.3967" lon="5.53352">
        <ele>535</ele>
        <time>2012-06-02T11:23:50.340Z</time>
      </trkpt>
      <trkpt lat="45.39675" lon="5.53352">
        <ele>534.5</ele>
        <time>2012-06-02T11:23:55.330Z</time>
      </trkpt>
      <trkpt lat="45.39678" lon="5.5336">
        <ele>535</ele>
        <time>2012-06-02T11:24:04.330Z</time>
      </trkpt>
      <trkpt lat="45.39681" lon="5.5336">
        <ele>535.5</ele>
        <time>2012-06-02T11:24:07.330Z</time>
      </trkpt>
      <trkpt lat="45.39691" lon="5.53384">
        <ele>531.5</ele>
        <time>2012-06-02T11:24:18.330Z</time>
      </trkpt>
      <trkpt lat="45.39695" lon="5.53388">
        <ele>529.5</ele>
        <time>2012-06-02T11:24:23.330Z</time>
      </trkpt>
      <trkpt lat="45.39693" lon="5.53388">
        <ele>529.5</ele>
        <time>2012-06-02T11:24:24.320Z</time>
      </trkpt>
      <trkpt lat="45.39699" lon="5.53393">
        <ele>528.5</ele>
        <time>2012-06-02T11:24:33.330Z</time>
      </trkpt>
      <trkpt lat="45.39703" lon="5.53406">
        <ele>523.5</ele>
        <time>2012-06-02T11:25:26.320Z</time>
      </trkpt>
      <trkpt lat="45.39707" lon="5.53403">
        <ele>522</ele>
        <time>2012-06-02T11:25:31.320Z</time>
      </trkpt>
      <trkpt lat="45.39753" lon="5.53455">
        <ele>519</ele>
        <time>2012-06-02T11:25:54.310Z</time>
      </trkpt>
      <trkpt lat="45.39798" lon="5.53486">
        <ele>517.5</ele>
        <time>2012-06-02T11:26:07.300Z</time>
      </trkpt>
      <trkpt lat="45.39809" lon="5.53498">
        <ele>517</ele>
        <time>2012-06-02T11:26:11.300Z</time>
      </trkpt>
      <trkpt lat="45.39813" lon="5.53524">
        <ele>516.5</ele>
        <time>2012-06-02T11:26:17.310Z</time>
      </trkpt>
      <trkpt lat="45.39809" lon="5.53572">
        <ele>517</ele>
        <time>2012-06-02T11:26:30.300Z</time>
      </trkpt>
      <trkpt lat="45.39794" lon="5.53642">
        <ele>515.5</ele>
        <time>2012-06-02T11:26:50.300Z</time>
      </trkpt>
      <trkpt lat="45.39791" lon="5.53695">
        <ele>512</ele>
        <time>2012-06-02T11:27:04.310Z</time>
      </trkpt>
      <trkpt lat="45.39796" lon="5.53745">
        <ele>511.5</ele>
        <time>2012-06-02T11:27:17.310Z</time>
      </trkpt>
      <trkpt lat="45.39803" lon="5.53772">
        <ele>511.5</ele>
        <time>2012-06-02T11:27:25.310Z</time>
      </trkpt>
      <trkpt lat="45.3982" lon="5.53801">
        <ele>512.5</ele>
        <time>2012-06-02T11:27:35.360Z</time>
      </trkpt>
      <trkpt lat="45.39835" lon="5.53818">
        <ele>512</ele>
        <time>2012-06-02T11:27:42.360Z</time>
      </trkpt>
      <trkpt lat="45.39867" lon="5.53837">
        <ele>511.5</ele>
        <time>2012-06-02T11:27:55.360Z</time>
      </trkpt>
      <trkpt lat="45.39895" lon="5.53843">
        <ele>516.5</ele>
        <time>2012-06-02T11:28:09.360Z</time>
      </trkpt>
      <trkpt lat="45.39934" lon="5.53869">
        <ele>518</ele>
        <time>2012-06-02T11:28:23.360Z</time>
      </trkpt>
      <trkpt lat="45.3996" lon="5.53897">
        <ele>519</ele>
        <time>2012-06-02T11:28:35.360Z</time>
      </trkpt>
      <trkpt lat="45.39979" lon="5.5393">
        <ele>519</ele>
        <time>2012-06-02T11:28:46.360Z</time>
      </trkpt>
      <trkpt lat="45.40018" lon="5.54017">
        <ele>519.5</ele>
        <time>2012-06-02T11:29:12.360Z</time>
      </trkpt>
      <trkpt lat="45.40022" lon="5.54037">
        <ele>522</ele>
        <time>2012-06-02T11:29:18.360Z</time>
      </trkpt>
      <trkpt lat="45.40018" lon="5.54066">
        <ele>535.5</ele>
        <time>2012-06-02T11:29:35.360Z</time>
      </trkpt>
      <trkpt lat="45.39972" lon="5.54105">
        <ele>537.5</ele>
        <time>2012-06-02T11:30:01.360Z</time>
      </trkpt>
      <trkpt lat="45.39914" lon="5.54142">
        <ele>538</ele>
        <time>2012-06-02T11:30:33.360Z</time>
      </trkpt>
      <trkpt lat="45.39892" lon="5.5417">
        <ele>538</ele>
        <time>2012-06-02T11:30:48.360Z</time>
      </trkpt>
      <trkpt lat="45.39887" lon="5.54182">
        <ele>539</ele>
        <time>2012-06-02T11:30:54.360Z</time>
      </trkpt>
      <trkpt lat="45.39888" lon="5.54187">
        <ele>541.5</ele>
        <time>2012-06-02T11:30:57.360Z</time>
      </trkpt>
      <trkpt lat="45.39871" lon="5.54241">
        <ele>548</ele>
        <time>2012-06-02T11:31:21.360Z</time>
      </trkpt>
      <trkpt lat="45.39858" lon="5.54269">
        <ele>549</ele>
        <time>2012-06-02T11:31:35.360Z</time>
      </trkpt>
      <trkpt lat="45.39858" lon="5.54283">
        <ele>556.5</ele>
        <time>2012-06-02T11:31:43.360Z</time>
      </trkpt>
      <trkpt lat="45.39819" lon="5.54406">
        <ele>574.5</ele>
        <time>2012-06-02T11:32:41.360Z</time>
      </trkpt>
      <trkpt lat="45.39813" lon="5.5441">
        <ele>566.5</ele>
        <time>2012-06-02T11:33:22.360Z</time>
      </trkpt>
      <trkpt lat="45.39814" lon="5.54414">
        <ele>567</ele>
        <time>2012-06-02T11:33:53.360Z</time>
      </trkpt>
      <trkpt lat="45.39826" lon="5.54414">
        <ele>565</ele>
        <time>2012-06-02T11:33:58.360Z</time>
      </trkpt>
      <trkpt lat="45.39854" lon="5.54426">
        <ele>562.5</ele>
        <time>2012-06-02T11:34:05.360Z</time>
      </trkpt>
      <trkpt lat="45.3992" lon="5.54473">
        <ele>559.5</ele>
        <time>2012-06-02T11:34:18.360Z</time>
      </trkpt>
      <trkpt lat="45.39928" lon="5.54472">
        <ele>559.5</ele>
        <time>2012-06-02T11:34:20.360Z</time>
      </trkpt>
      <trkpt lat="45.39983" lon="5.54507">
        <ele>557</ele>
        <time>2012-06-02T11:34:32.360Z</time>
      </trkpt>
      <trkpt lat="45.40003" lon="5.54525">
        <ele>557.5</ele>
        <time>2012-06-02T11:34:36.360Z</time>
      </trkpt>
      <trkpt lat="45.4003" lon="5.54558">
        <ele>556.5</ele>
        <time>2012-06-02T11:34:43.360Z</time>
      </trkpt>
      <trkpt lat="45.40097" lon="5.54623">
        <ele>550.5</ele>
        <time>2012-06-02T11:34:59.360Z</time>
      </trkpt>
      <trkpt lat="45.40163" lon="5.54712">
        <ele>555.5</ele>
        <time>2012-06-02T11:35:28.360Z</time>
      </trkpt>
      <trkpt lat="45.40188" lon="5.54742">
        <ele>557</ele>
        <time>2012-06-02T11:35:37.360Z</time>
      </trkpt>
      <trkpt lat="45.40207" lon="5.54759">
        <ele>559.5</ele>
        <time>2012-06-02T11:35:43.360Z</time>
      </trkpt>
      <trkpt lat="45.40241" lon="5.54806">
        <ele>564</ele>
        <time>2012-06-02T11:35:58.360Z</time>
      </trkpt>
      <trkpt lat="45.40285" lon="5.54843">
        <ele>568</ele>
        <time>2012-06-02T11:36:12.360Z</time>
      </trkpt>
      <trkpt lat="45.40316" lon="5.5488">
        <ele>565</ele>
        <time>2012-06-02T11:36:20.360Z</time>
      </trkpt>
      <trkpt lat="45.40333" lon="5.54909">
        <ele>560.5</ele>
        <time>2012-06-02T11:36:25.360Z</time>
      </trkpt>
      <trkpt lat="45.40376" lon="5.54966">
        <ele>551.5</ele>
        <time>2012-06-02T11:36:36.390Z</time>
      </trkpt>
      <trkpt lat="45.40381" lon="5.54995">
        <ele>552.5</ele>
        <time>2012-06-02T11:36:45.390Z</time>
      </trkpt>
      <trkpt lat="45.40388" lon="5.55009">
        <ele>549</ele>
        <time>2012-06-02T11:36:58.390Z</time>
      </trkpt>
      <trkpt lat="45.40387" lon="5.55012">
        <ele>547</ele>
        <time>2012-06-02T11:37:03.390Z</time>
      </trkpt>
      <trkpt lat="45.4039" lon="5.5502">
        <ele>547</ele>
        <time>2012-06-02T11:37:14.390Z</time>
      </trkpt>
      <trkpt lat="45.4039" lon="5.55029">
        <ele>545.5</ele>
        <time>2012-06-02T11:37:17.390Z</time>
      </trkpt>
      <trkpt lat="45.40394" lon="5.55045">
        <ele>545</ele>
        <time>2012-06-02T11:37:20.390Z</time>
      </trkpt>
      <trkpt lat="45.40393" lon="5.55059">
        <ele>541</ele>
        <time>2012-06-02T11:37:22.390Z</time>
      </trkpt>
      <trkpt lat="45.40408" lon="5.55104">
        <ele>539.5</ele>
        <time>2012-06-02T11:37:34.390Z</time>
      </trkpt>
      <trkpt lat="45.40411" lon="5.55107">
        <ele>542</ele>
        <time>2012-06-02T11:37:36.390Z</time>
      </trkpt>
      <trkpt lat="45.40406" lon="5.55116">
        <ele>542.5</ele>
        <time>2012-06-02T11:37:39.390Z</time>
      </trkpt>
      <trkpt lat="45.40415" lon="5.55146">
        <ele>546</ele>
        <time>2012-06-02T11:37:50.390Z</time>
      </trkpt>
      <trkpt lat="45.40431" lon="5.55165">
        <ele>552.5</ele>
        <time>2012-06-02T11:38:05.390Z</time>
      </trkpt>
      <trkpt lat="45.40426" lon="5.55183">
        <ele>547.5</ele>
        <time>2012-06-02T11:38:14.390Z</time>
      </trkpt>
      <trkpt lat="45.40437" lon="5.55204">
        <ele>548</ele>
        <time>2012-06-02T11:38:26.390Z</time>
      </trkpt>
      <trkpt lat="45.4045" lon="5.55219">
        <ele>549</ele>
        <time>2012-06-02T11:38:33.390Z</time>
      </trkpt>
      <trkpt lat="45.40472" lon="5.55233">
        <ele>557.5</ele>
        <time>2012-06-02T11:38:40.390Z</time>
      </trkpt>
      <trkpt lat="45.40478" lon="5.55233">
        <ele>562</ele>
        <time>2012-06-02T11:38:43.390Z</time>
      </trkpt>
      <trkpt lat="45.40494" lon="5.55252">
        <ele>564.5</ele>
        <time>2012-06-02T11:38:51.390Z</time>
      </trkpt>
      <trkpt lat="45.40504" lon="5.55271">
        <ele>563</ele>
        <time>2012-06-02T11:38:57.390Z</time>
      </trkpt>
      <trkpt lat="45.40506" lon="5.55285">
        <ele>557.5</ele>
        <time>2012-06-02T11:38:59.390Z</time>
      </trkpt>
      <trkpt lat="45.4052" lon="5.55323">
        <ele>550.5</ele>
        <time>2012-06-02T11:39:09.390Z</time>
      </trkpt>
      <trkpt lat="45.40545" lon="5.55456">
        <ele>547.5</ele>
        <time>2012-06-02T11:39:55.390Z</time>
      </trkpt>
      <trkpt lat="45.40554" lon="5.55476">
        <ele>547</ele>
        <time>2012-06-02T11:40:05.390Z</time>
      </trkpt>
      <trkpt lat="45.40575" lon="5.55502">
        <ele>552</ele>
        <time>2012-06-02T11:40:22.390Z</time>
      </trkpt>
      <trkpt lat="45.40593" lon="5.55517">
        <ele>552.5</ele>
        <time>2012-06-02T11:40:33.390Z</time>
      </trkpt>
      <trkpt lat="45.40603" lon="5.55521">
        <ele>554.5</ele>
        <time>2012-06-02T11:40:40.390Z</time>
      </trkpt>
      <trkpt lat="45.40613" lon="5.55531">
        <ele>558</ele>
        <time>2012-06-02T11:40:46.390Z</time>
      </trkpt>
      <trkpt lat="45.40618" lon="5.55545">
        <ele>554</ele>
        <time>2012-06-02T11:40:57.390Z</time>
      </trkpt>
      <trkpt lat="45.40602" lon="5.55571">
        <ele>551</ele>
        <time>2012-06-02T11:41:18.390Z</time>
      </trkpt>
      <trkpt lat="45.40648" lon="5.55542">
        <ele>550.5</ele>
        <time>2012-06-02T11:41:39.390Z</time>
      </trkpt>
      <trkpt lat="45.40714" lon="5.55518">
        <ele>549</ele>
        <time>2012-06-02T11:41:56.390Z</time>
      </trkpt>
      <trkpt lat="45.40758" lon="5.55513">
        <ele>551.5</ele>
        <time>2012-06-02T11:42:06.390Z</time>
      </trkpt>
      <trkpt lat="45.40794" lon="5.55521">
        <ele>551.5</ele>
        <time>2012-06-02T11:42:14.390Z</time>
      </trkpt>
      <trkpt lat="45.40894" lon="5.55568">
        <ele>544.5</ele>
        <time>2012-06-02T11:42:43.390Z</time>
      </trkpt>
      <trkpt lat="45.40944" lon="5.55611">
        <ele>540</ele>
        <time>2012-06-02T11:43:04.390Z</time>
      </trkpt>
      <trkpt lat="45.40966" lon="5.55641">
        <ele>538</ele>
        <time>2012-06-02T11:43:16.390Z</time>
      </trkpt>
      <trkpt lat="45.40981" lon="5.55699">
        <ele>536.5</ele>
        <time>2012-06-02T11:43:42.390Z</time>
      </trkpt>
      <trkpt lat="45.4099" lon="5.55719">
        <ele>537</ele>
        <time>2012-06-02T11:45:03.390Z</time>
      </trkpt>
      <trkpt lat="45.41" lon="5.55719">
        <ele>536.5</ele>
        <time>2012-06-02T11:45:11.390Z</time>
      </trkpt>
      <trkpt lat="45.41002" lon="5.55723">
        <ele>537.5</ele>
        <time>2012-06-02T11:46:53.390Z</time>
      </trkpt>
      <trkpt lat="45.41012" lon="5.55728">
        <ele>540</ele>
        <time>2012-06-02T11:46:58.390Z</time>
      </trkpt>
      <trkpt lat="45.4102" lon="5.55728">
        <ele>540</ele>
        <time>2012-06-02T11:47:00.390Z</time>
      </trkpt>
      <trkpt lat="45.41034" lon="5.55717">
        <ele>541</ele>
        <time>2012-06-02T11:47:04.390Z</time>
      </trkpt>
      <trkpt lat="45.41062" lon="5.55721">
        <ele>540.5</ele>
        <time>2012-06-02T11:47:11.390Z</time>
      </trkpt>
      <trkpt lat="45.41177" lon="5.55723">
        <ele>537</ele>
        <time>2012-06-02T11:47:32.390Z</time>
      </trkpt>
      <trkpt lat="45.41204" lon="5.55733">
        <ele>536</ele>
        <time>2012-06-02T11:47:37.390Z</time>
      </trkpt>
      <trkpt lat="45.41213" lon="5.5574">
        <ele>536</ele>
        <time>2012-06-02T11:47:39.390Z</time>
      </trkpt>
      <trkpt lat="45.41223" lon="5.55755">
        <ele>532</ele>
        <time>2012-06-02T11:48:00.530Z</time>
      </trkpt>
    </trkseg>
  </trk>
</gpx>